Observation data for Endee on 07/21/2019      Previous  Date  Next       Current Mesonet Observations  Soil Data  Daily Summary Page  Observations in Plain Language
KEN1 210500Z 36010KT 29/13 A2996 RMK A01 T02920128  RH  037%=      5-min Rain = 0
KEN1 210501Z 00009KT 29/13 A2995 RMK A01 T02910129  RH  037%=      5-min Rain = 0
KEN1 210502Z 00011KT 29/13 A2995 RMK A01 T02900129  RH  037%=      5-min Rain = 0
KEN1 210503Z 00010KT 29/13 A2995 RMK A01 T02880128  RH  037%=      5-min Rain = 0
KEN1 210504Z 01009KT 29/13 A2995 RMK A01 T02880128  RH  037%=      5-min Rain = 0
KEN1 210505Z 01009KT 29/13 A2995 RMK A01 T02880127  RH  037%=      5-min Rain = 0
KEN1 210506Z 01008KT 29/13 A2995 RMK A01 T02880126  RH  037%=      5-min Rain = 0
KEN1 210507Z 01008KT 29/13 A2995 RMK A01 T02880127  RH  037%=      5-min Rain = 0
KEN1 210508Z 01008KT 29/13 A2995 RMK A01 T02870127  RH  037%=      5-min Rain = 0
KEN1 210509Z 36008KT 29/13 A2996 RMK A01 T02870127  RH  037%=      5-min Rain = 0
KEN1 210510Z 34009KT 29/13 A2996 RMK A01 T02870127  RH  037%=      5-min Rain = 0
KEN1 210511Z 34010KT 29/13 A2996 RMK A01 T02880127  RH  037%=      5-min Rain = 0
KEN1 210512Z 35009KT 29/13 A2996 RMK A01 T02900126  RH  037%=      5-min Rain = 0
KEN1 210513Z 36008KT 29/13 A2996 RMK A01 T02920125  RH  036%=      5-min Rain = 0
KEN1 210514Z 34010KT 29/12 A2996 RMK A01 T02940124  RH  035%=      5-min Rain = 0
KEN1 210515Z 32010KT 30/12 A2996 RMK A01 T02970117  RH  033%=      5-min Rain = 0
KEN1 210516Z 33008KT 30/12 A2997 RMK A01 T03010119  RH  033%=      5-min Rain = 0
KEN1 210517Z 32008KT 30/12 A2997 RMK A01 T03010124  RH  034%=      5-min Rain = 0
KEN1 210518Z 33008KT 30/12 A2997 RMK A01 T02990124  RH  034%=      5-min Rain = 0
KEN1 210519Z 33009KT 30/12 A2996 RMK A01 T02980123  RH  034%=      5-min Rain = 0
KEN1 210520Z 33008KT 30/12 A2996 RMK A01 T02970124  RH  035%=      5-min Rain = 0
KEN1 210521Z 33008KT 30/13 A2996 RMK A01 T02960125  RH  035%=      5-min Rain = 0
KEN1 210522Z 34007KT 30/12 A2996 RMK A01 T02950124  RH  035%=      5-min Rain = 0
KEN1 210523Z 34008KT 29/12 A2996 RMK A01 T02940124  RH  035%=      5-min Rain = 0
KEN1 210524Z 35008KT 29/12 A2996 RMK A01 T02930124  RH  035%=      5-min Rain = 0
KEN1 210525Z 35007KT 29/13 A2996 RMK A01 T02920125  RH  036%=      5-min Rain = 0
KEN1 210526Z 36007KT 29/13 A2996 RMK A01 T02910125  RH  036%=      5-min Rain = 0
KEN1 210527Z 36006KT 29/13 A2996 RMK A01 T02900125  RH  036%=      5-min Rain = 0
KEN1 210528Z 00007KT 29/13 A2996 RMK A01 T02880126  RH  037%=      5-min Rain = 0
KEN1 210529Z 00007KT 29/13 A2997 RMK A01 T02860126  RH  037%=      5-min Rain = 0
KEN1 210530Z 00007KT 28/13 A2997 RMK A01 T02840126  RH  038%=      5-min Rain = 0
KEN1 210531Z 01007KT 28/13 A2996 RMK A01 T02820127  RH  038%=      5-min Rain = 0
KEN1 210532Z 01007KT 28/13 A2997 RMK A01 T02800127  RH  039%=      5-min Rain = 0
KEN1 210533Z 00007KT 28/13 A2997 RMK A01 T02780127  RH  039%=      5-min Rain = 0
KEN1 210534Z 35007KT 28/13 A2997 RMK A01 T02770127  RH  040%=      5-min Rain = 0
KEN1 210535Z 34008KT 28/13 A2997 RMK A01 T02760127  RH  040%=      5-min Rain = 0
KEN1 210536Z 34008KT 28/13 A2997 RMK A01 T02760127  RH  040%=      5-min Rain = 0
KEN1 210537Z 34007KT 28/13 A2998 RMK A01 T02770127  RH  040%=      5-min Rain = 0
KEN1 210538Z 34008KT 28/13 A2998 RMK A01 T02780128  RH  039%=      5-min Rain = 0
KEN1 210539Z 35008KT 28/13 A2998 RMK A01 T02790127  RH  039%=      5-min Rain = 0
KEN1 210540Z 35007KT 28/13 A2998 RMK A01 T02800128  RH  039%=      5-min Rain = 0
KEN1 210541Z 00008KT 28/13 A2998 RMK A01 T02800128  RH  039%=      5-min Rain = 0
KEN1 210542Z 00008KT 28/13 A2998 RMK A01 T02810128  RH  039%=      5-min Rain = 0
KEN1 210543Z 01009KT 28/13 A2998 RMK A01 T02800128  RH  039%=      5-min Rain = 0
KEN1 210544Z 01009KT 28/13 A2998 RMK A01 T02780128  RH  040%=      5-min Rain = 0
KEN1 210545Z 02008KT 28/13 A2997 RMK A01 T02770128  RH  040%=      5-min Rain = 0
KEN1 210546Z 02008KT 28/13 A2997 RMK A01 T02750129  RH  040%=      5-min Rain = 0
KEN1 210547Z 02008KT 27/13 A2997 RMK A01 T02740129  RH  041%=      5-min Rain = 0
KEN1 210548Z 02008KT 27/13 A2997 RMK A01 T02730129  RH  041%=      5-min Rain = 0
KEN1 210549Z 01008KT 27/13 A2997 RMK A01 T02720129  RH  041%=      5-min Rain = 0
KEN1 210550Z 01008KT 27/13 A2997 RMK A01 T02710130  RH  042%=      5-min Rain = 0
KEN1 210551Z 01008KT 27/13 A2997 RMK A01 T02710130  RH  042%=      5-min Rain = 0
KEN1 210552Z 02009KT 27/13 A2997 RMK A01 T02700130  RH  042%=      5-min Rain = 0
KEN1 210553Z 02009KT 27/13 A2997 RMK A01 T02700130  RH  042%=      5-min Rain = 0
KEN1 210554Z 02009KT 27/13 A2996 RMK A01 T02700130  RH  042%=      5-min Rain = 0
KEN1 210555Z 02009KT 27/13 A2996 RMK A01 T02700128  RH  041%=      5-min Rain = 0
KEN1 210556Z 03009KT 27/13 A2996 RMK A01 T02730126  RH  040%=      5-min Rain = 0
KEN1 210557Z 02008KT 28/13 A2996 RMK A01 T02750126  RH  040%=      5-min Rain = 0
KEN1 210558Z 02008KT 28/13 A2996 RMK A01 T02760127  RH  040%=      5-min Rain = 0
KEN1 210559Z 03008KT 28/13 A2996 RMK A01 T02760127  RH  040%=      5-min Rain = 0
KEN1 210600Z 03009KT 28/13 A2996 RMK A01 T02750127  RH  040%=      5-min Rain = 0
KEN1 210601Z 02009KT 28/13 A2996 RMK A01 T02750128  RH  040%=      5-min Rain = 0
KEN1 210602Z 03008KT 28/13 A2996 RMK A01 T02750128  RH  040%=      5-min Rain = 0
KEN1 210603Z 03008KT 27/13 A2996 RMK A01 T02740128  RH  040%=      5-min Rain = 0
KEN1 210604Z 03009KT 27/13 A2996 RMK A01 T02740129  RH  041%=      5-min Rain = 0
KEN1 210605Z 03009KT 27/13 A2996 RMK A01 T02730128  RH  041%=      5-min Rain = 0
KEN1 210606Z 03010KT 27/13 A2996 RMK A01 T02730127  RH  040%=      5-min Rain = 0
KEN1 210607Z 02009KT 27/13 A2996 RMK A01 T02740127  RH  040%=      5-min Rain = 0
KEN1 210608Z 02009KT 27/13 A2996 RMK A01 T02740126  RH  040%=      5-min Rain = 0
KEN1 210609Z 03008KT 28/13 A2996 RMK A01 T02750127  RH  040%=      5-min Rain = 0
KEN1 210610Z 03008KT 28/13 A2996 RMK A01 T02750126  RH  040%=      5-min Rain = 0
KEN1 210611Z 02008KT 28/13 A2996 RMK A01 T02750126  RH  040%=      5-min Rain = 0
KEN1 210612Z 02007KT 27/13 A2996 RMK A01 T02740126  RH  040%=      5-min Rain = 0
KEN1 210613Z 01007KT 27/13 A2997 RMK A01 T02740126  RH  040%=      5-min Rain = 0
KEN1 210614Z 02007KT 27/13 A2997 RMK A01 T02740126  RH  040%=      5-min Rain = 0
KEN1 210615Z 03007KT 27/13 A2996 RMK A01 T02740126  RH  040%=      5-min Rain = 0
KEN1 210616Z 03008KT 27/13 A2996 RMK A01 T02730126  RH  040%=      5-min Rain = 0
KEN1 210617Z 03008KT 27/13 A2996 RMK A01 T02710126  RH  041%=      5-min Rain = 0
KEN1 210618Z 03008KT 27/13 A2996 RMK A01 T02700127  RH  041%=      5-min Rain = 0
KEN1 210619Z 04008KT 27/13 A2996 RMK A01 T02700126  RH  041%=      5-min Rain = 0
KEN1 210620Z 04007KT 27/13 A2996 RMK A01 T02690126  RH  041%=      5-min Rain = 0
KEN1 210621Z 04008KT 27/13 A2996 RMK A01 T02690126  RH  041%=      5-min Rain = 0
KEN1 210622Z 05007KT 27/13 A2996 RMK A01 T02690125  RH  041%=      5-min Rain = 0
KEN1 210623Z 05007KT 27/12 A2996 RMK A01 T02710124  RH  040%=      5-min Rain = 0
KEN1 210624Z 05007KT 27/12 A2996 RMK A01 T02710124  RH  040%=      5-min Rain = 0
KEN1 210625Z 06007KT 27/12 A2996 RMK A01 T02720123  RH  040%=      5-min Rain = 0
KEN1 210626Z 06007KT 27/12 A2996 RMK A01 T02720124  RH  040%=      5-min Rain = 0
KEN1 210627Z 06007KT 27/12 A2996 RMK A01 T02710124  RH  040%=      5-min Rain = 0
KEN1 210628Z 05008KT 27/12 A2996 RMK A01 T02700123  RH  040%=      5-min Rain = 0
KEN1 210629Z 05008KT 27/12 A2996 RMK A01 T02700123  RH  040%=      5-min Rain = 0
KEN1 210630Z 05007KT 27/12 A2996 RMK A01 T02700122  RH  040%=      5-min Rain = 0
KEN1 210631Z 04007KT 27/12 A2997 RMK A01 T02720122  RH  040%=      5-min Rain = 0
KEN1 210632Z 04007KT 27/12 A2997 RMK A01 T02720122  RH  039%=      5-min Rain = 0
KEN1 210633Z 04007KT 27/12 A2997 RMK A01 T02720123  RH  040%=      5-min Rain = 0
KEN1 210634Z 04007KT 27/12 A2996 RMK A01 T02720123  RH  040%=      5-min Rain = 0
KEN1 210635Z 04007KT 27/12 A2996 RMK A01 T02720122  RH  040%=      5-min Rain = 0
KEN1 210636Z 04008KT 27/12 A2996 RMK A01 T02720123  RH  039%=      5-min Rain = 0
KEN1 210637Z 05008KT 27/12 A2996 RMK A01 T02720123  RH  040%=      5-min Rain = 0
KEN1 210638Z 05008KT 27/12 A2996 RMK A01 T02720123  RH  040%=      5-min Rain = 0
KEN1 210639Z 05009KT 27/12 A2996 RMK A01 T02710123  RH  040%=      5-min Rain = 0
KEN1 210640Z 05009KT 27/12 A2996 RMK A01 T02700123  RH  040%=      5-min Rain = 0
KEN1 210641Z 05010KT 27/12 A2996 RMK A01 T02710123  RH  040%=      5-min Rain = 0
KEN1 210642Z 05009KT 27/12 A2996 RMK A01 T02710122  RH  039%=      5-min Rain = 0
KEN1 210643Z 05009KT 27/12 A2996 RMK A01 T02720122  RH  039%=      5-min Rain = 0
KEN1 210644Z 05010KT 27/12 A2996 RMK A01 T02720121  RH  039%=      5-min Rain = 0
KEN1 210645Z 06010KT 27/12 A2996 RMK A01 T02740121  RH  039%=      5-min Rain = 0
KEN1 210646Z 06008KT 28/12 A2996 RMK A01 T02750122  RH  038%=      5-min Rain = 0
KEN1 210647Z 07008KT 28/12 A2996 RMK A01 T02750123  RH  039%=      5-min Rain = 0
KEN1 210648Z 07009KT 27/13 A2996 RMK A01 T02740126  RH  040%=      5-min Rain = 0
KEN1 210649Z 07009KT 27/13 A2996 RMK A01 T02730129  RH  041%=      5-min Rain = 0
KEN1 210650Z 07009KT 27/13 A2996 RMK A01 T02720132  RH  042%=      5-min Rain = 0
KEN1 210651Z 07010KT 27/13 A2996 RMK A01 T02720134  RH  043%=      5-min Rain = 0
KEN1 210652Z 07010KT 27/13 A2996 RMK A01 T02710134  RH  043%=      5-min Rain = 0
KEN1 210653Z 08009KT 27/14 A2996 RMK A01 T02710135  RH  043%=      5-min Rain = 0
KEN1 210654Z 07010KT 27/14 A2996 RMK A01 T02710135  RH  043%=      5-min Rain = 0
KEN1 210655Z 07010KT 27/14 A2997 RMK A01 T02710136  RH  043%=      5-min Rain = 0
KEN1 210656Z 07010KT 27/14 A2997 RMK A01 T02700137  RH  044%=      5-min Rain = 0
KEN1 210657Z 07010KT 27/14 A2997 RMK A01 T02700139  RH  044%=      5-min Rain = 0
KEN1 210658Z 07009KT 27/14 A2997 RMK A01 T02690140  RH  045%=      5-min Rain = 0
KEN1 210659Z 07010KT 27/14 A2997 RMK A01 T02690141  RH  045%=      5-min Rain = 0
KEN1 210700Z 07009KT 27/14 A2997 RMK A01 T02680141  RH  046%=      5-min Rain = 0
KEN1 210701Z 07010KT 27/14 A2997 RMK A01 T02670141  RH  046%=      5-min Rain = 0
KEN1 210702Z 07010KT 27/14 A2997 RMK A01 T02680141  RH  046%=      5-min Rain = 0
KEN1 210703Z 08010KT 27/14 A2997 RMK A01 T02680141  RH  046%=      5-min Rain = 0
KEN1 210704Z 08009KT 27/14 A2997 RMK A01 T02680142  RH  046%=      5-min Rain = 0
KEN1 210705Z 08009KT 27/14 A2997 RMK A01 T02680142  RH  046%=      5-min Rain = 0
KEN1 210706Z 08010KT 27/14 A2997 RMK A01 T02670142  RH  046%=      5-min Rain = 0
KEN1 210707Z 07008KT 27/14 A2997 RMK A01 T02670141  RH  046%=      5-min Rain = 0
KEN1 210708Z 07007KT 27/14 A2997 RMK A01 T02670141  RH  046%=      5-min Rain = 0
KEN1 210709Z 08008KT 27/14 A2997 RMK A01 T02670141  RH  046%=      5-min Rain = 0
KEN1 210710Z 08007KT 27/14 A2997 RMK A01 T02660141  RH  046%=      5-min Rain = 0
KEN1 210711Z 08008KT 27/14 A2997 RMK A01 T02650140  RH  046%=      5-min Rain = 0
KEN1 210712Z 08008KT 26/14 A2997 RMK A01 T02640140  RH  046%=      5-min Rain = 0
KEN1 210713Z 08008KT 26/14 A2997 RMK A01 T02640140  RH  046%=      5-min Rain = 0
KEN1 210714Z 08007KT 26/14 A2997 RMK A01 T02640140  RH  046%=      5-min Rain = 0
KEN1 210715Z 08007KT 26/14 A2997 RMK A01 T02630140  RH  046%=      5-min Rain = 0
KEN1 210716Z 08007KT 26/14 A2997 RMK A01 T02630140  RH  047%=      5-min Rain = 0
KEN1 210717Z 08007KT 26/14 A2997 RMK A01 T02620139  RH  047%=      5-min Rain = 0
KEN1 210718Z 08007KT 26/14 A2997 RMK A01 T02630139  RH  046%=      5-min Rain = 0
KEN1 210719Z 07007KT 26/14 A2997 RMK A01 T02630137  RH  046%=      5-min Rain = 0
KEN1 210720Z 07007KT 26/14 A2997 RMK A01 T02630137  RH  046%=      5-min Rain = 0
KEN1 210721Z 07006KT 26/14 A2997 RMK A01 T02630137  RH  046%=      5-min Rain = 0
KEN1 210722Z 07007KT 26/14 A2997 RMK A01 T02640137  RH  046%=      5-min Rain = 0
KEN1 210723Z 07007KT 26/14 A2997 RMK A01 T02640137  RH  046%=      5-min Rain = 0
KEN1 210724Z 07007KT 26/14 A2997 RMK A01 T02630137  RH  046%=      5-min Rain = 0
KEN1 210725Z 07007KT 26/14 A2997 RMK A01 T02630137  RH  046%=      5-min Rain = 0
KEN1 210726Z 07007KT 26/14 A2997 RMK A01 T02630136  RH  046%=      5-min Rain = 0
KEN1 210727Z 07007KT 26/14 A2997 RMK A01 T02620137  RH  046%=      5-min Rain = 0
KEN1 210728Z 07007KT 26/14 A2997 RMK A01 T02600136  RH  046%=      5-min Rain = 0
KEN1 210729Z 07008KT 26/14 A2997 RMK A01 T02590136  RH  047%=      5-min Rain = 0
KEN1 210730Z 07008KT 26/14 A2997 RMK A01 T02580136  RH  047%=      5-min Rain = 0
KEN1 210731Z 07007KT 26/14 A2997 RMK A01 T02580136  RH  047%=      5-min Rain = 0
KEN1 210732Z 06007KT 26/14 A2997 RMK A01 T02580136  RH  047%=      5-min Rain = 0
KEN1 210733Z 06007KT 26/14 A2997 RMK A01 T02570136  RH  047%=      5-min Rain = 0
KEN1 210734Z 06006KT 26/14 A2997 RMK A01 T02570136  RH  047%=      5-min Rain = 0
KEN1 210735Z 06006KT 26/14 A2997 RMK A01 T02560136  RH  047%=      5-min Rain = 0
KEN1 210736Z 05006KT 26/14 A2997 RMK A01 T02550136  RH  048%=      5-min Rain = 0
KEN1 210737Z 04006KT 25/14 A2997 RMK A01 T02540136  RH  048%=      5-min Rain = 0
KEN1 210738Z 01007KT 25/14 A2997 RMK A01 T02520136  RH  048%=      5-min Rain = 0
KEN1 210739Z 02007KT 25/14 A2997 RMK A01 T02510136  RH  049%=      5-min Rain = 0
KEN1 210740Z 03007KT 25/14 A2997 RMK A01 T02500136  RH  049%=      5-min Rain = 0
KEN1 210741Z 04007KT 25/14 A2997 RMK A01 T02500136  RH  049%=      5-min Rain = 0
KEN1 210742Z 05007KT 25/14 A2997 RMK A01 T02500135  RH  049%=      5-min Rain = 0
KEN1 210743Z 05007KT 25/14 A2997 RMK A01 T02520136  RH  048%=      5-min Rain = 0
KEN1 210744Z 05008KT 25/14 A2997 RMK A01 T02530136  RH  048%=      5-min Rain = 0
KEN1 210745Z 05008KT 25/14 A2997 RMK A01 T02530136  RH  048%=      5-min Rain = 0
KEN1 210746Z 06008KT 26/14 A2997 RMK A01 T02560136  RH  047%=      5-min Rain = 0
KEN1 210747Z 06008KT 26/14 A2997 RMK A01 T02560136  RH  047%=      5-min Rain = 0
KEN1 210748Z 06009KT 26/14 A2997 RMK A01 T02560136  RH  048%=      5-min Rain = 0
KEN1 210749Z 06009KT 26/14 A2997 RMK A01 T02550135  RH  047%=      5-min Rain = 0
KEN1 210750Z 07009KT 26/14 A2997 RMK A01 T02570135  RH  047%=      5-min Rain = 0
KEN1 210751Z 07008KT 26/14 A2997 RMK A01 T02610135  RH  046%=      5-min Rain = 0
KEN1 210752Z 07008KT 26/14 A2997 RMK A01 T02630136  RH  045%=      5-min Rain = 0
KEN1 210753Z 07007KT 26/14 A2997 RMK A01 T02630136  RH  045%=      5-min Rain = 0
KEN1 210754Z 06007KT 26/14 A2997 RMK A01 T02620135  RH  046%=      5-min Rain = 0
KEN1 210755Z 06006KT 26/14 A2997 RMK A01 T02610136  RH  046%=      5-min Rain = 0
KEN1 210756Z 06006KT 26/14 A2997 RMK A01 T02590136  RH  046%=      5-min Rain = 0
KEN1 210757Z 06005KT 26/14 A2997 RMK A01 T02570135  RH  047%=      5-min Rain = 0
KEN1 210758Z 06004KT 26/14 A2997 RMK A01 T02550136  RH  048%=      5-min Rain = 0
KEN1 210759Z 06004KT 25/14 A2997 RMK A01 T02530135  RH  048%=      5-min Rain = 0
KEN1 210800Z 05004KT 25/14 A2997 RMK A01 T02510135  RH  049%=      5-min Rain = 0
KEN1 210801Z 02004KT 25/14 A2997 RMK A01 T02490135  RH  049%=      5-min Rain = 0
KEN1 210802Z 35004KT 25/14 A2997 RMK A01 T02480135  RH  049%=      5-min Rain = 0
KEN1 210803Z 35006KT 25/14 A2997 RMK A01 T02470135  RH  050%=      5-min Rain = 0
KEN1 210804Z 35005KT 25/13 A2998 RMK A01 T02460134  RH  050%=      5-min Rain = 0
KEN1 210805Z 35005KT 25/13 A2998 RMK A01 T02450134  RH  050%=      5-min Rain = 0
KEN1 210806Z 36004KT 25/14 A2998 RMK A01 T02450135  RH  050%=      5-min Rain = 0
KEN1 210807Z 01002KT 25/13 A2998 RMK A01 T02450134  RH  050%=      5-min Rain = 0
KEN1 210808Z 03003KT 25/13 A2998 RMK A01 T02450134  RH  050%=      5-min Rain = 0
KEN1 210809Z 02002KT 25/13 A2998 RMK A01 T02450134  RH  050%=      5-min Rain = 0
KEN1 210810Z 01001KT 25/13 A2998 RMK A01 T02450134  RH  050%=      5-min Rain = 0
KEN1 210811Z 31001KT 24/13 A2998 RMK A01 T02430134  RH  051%=      5-min Rain = 0
KEN1 210812Z 28002KT 24/14 A2998 RMK A01 T02420135  RH  051%=      5-min Rain = 0
KEN1 210813Z 26003KT 24/14 A2998 RMK A01 T02420135  RH  051%=      5-min Rain = 0
KEN1 210814Z 26003KT 24/14 A2998 RMK A01 T02420135  RH  051%=      5-min Rain = 0
KEN1 210815Z 28002KT 24/14 A2998 RMK A01 T02420135  RH  051%=      5-min Rain = 0
KEN1 210816Z 30002KT 24/14 A2998 RMK A01 T02420136  RH  052%=      5-min Rain = 0
KEN1 210817Z 33002KT 24/14 A2998 RMK A01 T02420136  RH  052%=      5-min Rain = 0
KEN1 210818Z 32003KT 24/14 A2998 RMK A01 T02420136  RH  052%=      5-min Rain = 0
KEN1 210819Z 33003KT 24/14 A2998 RMK A01 T02430137  RH  052%=      5-min Rain = 0
KEN1 210820Z 33004KT 25/14 A2998 RMK A01 T02450137  RH  051%=      5-min Rain = 0
KEN1 210821Z 33008KT 25/14 A2998 RMK A01 T02450137  RH  051%=      5-min Rain = 0
KEN1 210822Z 34010KT 24/14 A2999 RMK A01 T02430137  RH  052%=      5-min Rain = 0
KEN1 210823Z 34009KT 24/14 A2999 RMK A01 T02430138  RH  052%=      5-min Rain = 0
KEN1 210824Z 34013KT 24/14 A2999 RMK A01 T02440138  RH  051%=      5-min Rain = 0
KEN1 210825Z 35012KT 25/14 A2999 RMK A01 T02490139  RH  050%=      5-min Rain = 0
KEN1 210826Z 01008KT 25/14 A2999 RMK A01 T02540139  RH  049%=      5-min Rain = 0
KEN1 210827Z 36008KT 26/14 A2999 RMK A01 T02550138  RH  048%=      5-min Rain = 0
KEN1 210828Z 36008KT 26/14 A2999 RMK A01 T02550138  RH  048%=      5-min Rain = 0
KEN1 210829Z 35009KT 25/14 A2999 RMK A01 T02530138  RH  049%=      5-min Rain = 0
KEN1 210830Z 34011KT 25/14 A2999 RMK A01 T02530138  RH  049%=      5-min Rain = 0
KEN1 210831Z 34010KT 26/14 A2999 RMK A01 T02550140  RH  049%=      5-min Rain = 0
KEN1 210832Z 33009KT 26/14 A2999 RMK A01 T02560141  RH  049%=      5-min Rain = 0
KEN1 210833Z 34009KT 26/14 A2999 RMK A01 T02560141  RH  049%=      5-min Rain = 0
KEN1 210834Z 34008KT 26/14 A2999 RMK A01 T02550141  RH  049%=      5-min Rain = 0
KEN1 210835Z 34009KT 25/14 A2999 RMK A01 T02540141  RH  050%=      5-min Rain = 0
KEN1 210836Z 34010KT 25/14 A2999 RMK A01 T02530142  RH  050%=      5-min Rain = 0
KEN1 210837Z 35010KT 25/14 A2999 RMK A01 T02530142  RH  050%=      5-min Rain = 0
KEN1 210838Z 35010KT 25/14 A2999 RMK A01 T02530143  RH  050%=      5-min Rain = 0
KEN1 210839Z 35009KT 25/14 A2999 RMK A01 T02520143  RH  051%=      5-min Rain = 0
KEN1 210840Z 35008KT 25/14 A2999 RMK A01 T02520143  RH  051%=      5-min Rain = 0
KEN1 210841Z 35008KT 25/14 A2999 RMK A01 T02510143  RH  051%=      5-min Rain = 0
KEN1 210842Z 35009KT 25/14 A2999 RMK A01 T02500143  RH  051%=      5-min Rain = 0
KEN1 210843Z 35010KT 25/14 A30 RMK A01 T02490143  RH  052%=      5-min Rain = 0
KEN1 210844Z 36011KT 25/14 A30 RMK A01 T02480144  RH  052%=      5-min Rain = 0
KEN1 210845Z 35011KT 25/14 A30 RMK A01 T02470144  RH  053%=      5-min Rain = 0
KEN1 210846Z 36011KT 25/14 A30 RMK A01 T02470144  RH  053%=      5-min Rain = 0
KEN1 210847Z 00010KT 25/14 A30 RMK A01 T02460144  RH  053%=      5-min Rain = 0
KEN1 210848Z 01009KT 24/15 A30 RMK A01 T02440145  RH  054%=      5-min Rain = 0
KEN1 210849Z 00009KT 24/15 A30 RMK A01 T02420145  RH  054%=      5-min Rain = 0
KEN1 210850Z 01009KT 24/15 A2999 RMK A01 T02420145  RH  055%=      5-min Rain = 0
KEN1 210851Z 01008KT 24/15 A2999 RMK A01 T02420146  RH  055%=      5-min Rain = 0
KEN1 210852Z 01009KT 24/15 A2999 RMK A01 T02410146  RH  055%=      5-min Rain = 0
KEN1 210853Z 01010KT 24/15 A2999 RMK A01 T02400145  RH  055%=      5-min Rain = 0
KEN1 210854Z 00010KT 24/15 A2999 RMK A01 T02400146  RH  056%=      5-min Rain = 0
KEN1 210855Z 00010KT 24/15 A2999 RMK A01 T02390146  RH  056%=      5-min Rain = 0
KEN1 210856Z 36009KT 24/15 A30 RMK A01 T02380146  RH  056%=      5-min Rain = 0
KEN1 210857Z 36010KT 24/15 A30 RMK A01 T02370146  RH  056%=      5-min Rain = 0
KEN1 210858Z 36011KT 24/15 A30 RMK A01 T02370146  RH  056%=      5-min Rain = 0
KEN1 210859Z 36011KT 24/15 A30 RMK A01 T02380146  RH  057%=      5-min Rain = 0
KEN1 210900Z 36011KT 24/15 A30 RMK A01 T02380147  RH  057%=      5-min Rain = 0
KEN1 210901Z 00011KT 24/15 A30 RMK A01 T02390147  RH  056%=      5-min Rain = 0
KEN1 210902Z 36010KT 24/15 A30 RMK A01 T02390147  RH  056%=      5-min Rain = 0
KEN1 210903Z 00010KT 24/15 A30 RMK A01 T02390147  RH  056%=      5-min Rain = 0
KEN1 210904Z 35012KT 24/15 A30 RMK A01 T02400147  RH  056%=      5-min Rain = 0
KEN1 210905Z 00013KT 24/15 A30 RMK A01 T02400147  RH  056%=      5-min Rain = 0
KEN1 210906Z 00011KT 24/15 A30 RMK A01 T02410147  RH  056%=      5-min Rain = 0
KEN1 210907Z 01010KT 24/15 A30 RMK A01 T02410147  RH  056%=      5-min Rain = 0
KEN1 210908Z 02009KT 24/15 A30 RMK A01 T02400147  RH  056%=      5-min Rain = 0
KEN1 210909Z 02009KT 24/15 A30 RMK A01 T02390147  RH  056%=      5-min Rain = 0
KEN1 210910Z 02010KT 24/15 A30 RMK A01 T02380147  RH  057%=      5-min Rain = 0
KEN1 210911Z 03011KT 24/15 A2999 RMK A01 T02370146  RH  057%=      5-min Rain = 0
KEN1 210912Z 03013KT 24/14 A2999 RMK A01 T02370144  RH  056%=      5-min Rain = 0
KEN1 210913Z 03014KT 24/14 A30 RMK A01 T02400143  RH  055%=      5-min Rain = 0
KEN1 210914Z 04014KT 24/14 A30 RMK A01 T02420142  RH  054%=      5-min Rain = 0
KEN1 210915Z 04014KT 24/14 A30 RMK A01 T02440142  RH  053%=      5-min Rain = 0
KEN1 210916Z 04016KT 25/14 A30 RMK A01 T02450140  RH  052%=      5-min Rain = 0
KEN1 210917Z 04016KT 25/14 A30 RMK A01 T02470140  RH  051%=      5-min Rain = 0
KEN1 210918Z 04018KT 25/14 A30 RMK A01 T02470139  RH  051%=      5-min Rain = 0
KEN1 210919Z 04017KT 25/14 A30 RMK A01 T02490138  RH  050%=      5-min Rain = 0
KEN1 210920Z 04017KT 25/14 A30 RMK A01 T02490138  RH  050%=      5-min Rain = 0
KEN1 210921Z 04017KT 25/14 A30 RMK A01 T02500139  RH  050%=      5-min Rain = 0
KEN1 210922Z 05014KT 25/14 A30 RMK A01 T02490139  RH  050%=      5-min Rain = 0
KEN1 210923Z 05016KT 25/14 A30 RMK A01 T02490139  RH  051%=      5-min Rain = 0
KEN1 210924Z 05014KT 25/14 A30 RMK A01 T02480139  RH  051%=      5-min Rain = 0
KEN1 210925Z 05015KT 25/14 A30 RMK A01 T02470140  RH  051%=      5-min Rain = 0
KEN1 210926Z 05016KT 25/14 A30 RMK A01 T02460140  RH  052%=      5-min Rain = 0
KEN1 210927Z 05016KT 25/14 A30 RMK A01 T02460141  RH  052%=      5-min Rain = 0
KEN1 210928Z 04013KT 25/14 A30 RMK A01 T02460141  RH  052%=      5-min Rain = 0
KEN1 210929Z 04015KT 25/14 A3001 RMK A01 T02460142  RH  052%=      5-min Rain = 0
KEN1 210930Z 04015KT 25/14 A3001 RMK A01 T02450142  RH  053%=      5-min Rain = 0
KEN1 210931Z 04016KT 25/14 A3001 RMK A01 T02450143  RH  053%=      5-min Rain = 0
KEN1 210932Z 04014KT 25/14 A3001 RMK A01 T02450144  RH  053%=      5-min Rain = 0
KEN1 210933Z 03014KT 24/14 A3001 RMK A01 T02440143  RH  053%=      5-min Rain = 0
KEN1 210934Z 03016KT 24/14 A3001 RMK A01 T02430144  RH  054%=      5-min Rain = 0
KEN1 210935Z 03015G21KT 24/15 A3001 RMK A01 T02420147  RH  055%=      5-min Rain = 0
KEN1 210936Z 04018KT 24/15 A30 RMK A01 T02410151  RH  057%=      5-min Rain = 0
KEN1 210937Z 04018KT 24/15 A3001 RMK A01 T02400152  RH  058%=      5-min Rain = 0
KEN1 210938Z 04016KT 24/15 A3001 RMK A01 T02390153  RH  059%=      5-min Rain = 0
KEN1 210939Z 04020KT 24/15 A3001 RMK A01 T02390154  RH  059%=      5-min Rain = 0
KEN1 210940Z 04016KT 24/16 A3001 RMK A01 T02390156  RH  060%=      5-min Rain = 0
KEN1 210941Z 04017G22KT 24/16 A3001 RMK A01 T02380155  RH  060%=      5-min Rain = 0
KEN1 210942Z 03019KT 24/16 A3001 RMK A01 T02380155  RH  060%=      5-min Rain = 0
KEN1 210943Z 04016KT 24/16 A3001 RMK A01 T02380155  RH  060%=      5-min Rain = 0
KEN1 210944Z 04014G19KT 24/16 A3001 RMK A01 T02380155  RH  060%=      5-min Rain = 0
KEN1 210945Z 04013G19KT 24/16 A3001 RMK A01 T02370155  RH  060%=      5-min Rain = 0
KEN1 210946Z 04018KT 24/16 A3001 RMK A01 T02360155  RH  060%=      5-min Rain = 0
KEN1 210947Z 04015KT 24/16 A3001 RMK A01 T02360155  RH  061%=      5-min Rain = 0
KEN1 210948Z 03014KT 24/16 A3001 RMK A01 T02350156  RH  061%=      5-min Rain = 0
KEN1 210949Z 03015KT 24/16 A3001 RMK A01 T02350156  RH  061%=      5-min Rain = 0
KEN1 210950Z 03017KT 23/16 A3001 RMK A01 T02340157  RH  062%=      5-min Rain = 0
KEN1 210951Z 03018KT 23/16 A3001 RMK A01 T02330158  RH  063%=      5-min Rain = 0
KEN1 210952Z 03016G21KT 23/16 A3001 RMK A01 T02320158  RH  063%=      5-min Rain = 0
KEN1 210953Z 03014KT 23/16 A3001 RMK A01 T02320158  RH  063%=      5-min Rain = 0
KEN1 210954Z 04015KT 23/16 A3001 RMK A01 T02310158  RH  063%=      5-min Rain = 0
KEN1 210955Z 03015KT 23/16 A3001 RMK A01 T02310159  RH  064%=      5-min Rain = 0
KEN1 210956Z 04015KT 23/16 A3001 RMK A01 T02300159  RH  064%=      5-min Rain = 0
KEN1 210957Z 03014KT 23/16 A3001 RMK A01 T02300159  RH  064%=      5-min Rain = 0
KEN1 210958Z 03018KT 23/16 A3001 RMK A01 T02300159  RH  064%=      5-min Rain = 0
KEN1 210959Z 03015KT 23/16 A3001 RMK A01 T02300160  RH  065%=      5-min Rain = 0
KEN1 211000Z 03017KT 23/16 A3001 RMK A01 T02290160  RH  065%=      5-min Rain = 0
KEN1 211001Z 03017KT 23/16 A3002 RMK A01 T02290160  RH  065%=      5-min Rain = 0
KEN1 211002Z 03018KT 23/16 A3002 RMK A01 T02290160  RH  065%=      5-min Rain = 0
KEN1 211003Z 04017KT 23/16 A3002 RMK A01 T02280161  RH  066%=      5-min Rain = 0
KEN1 211004Z 03016KT 23/16 A3002 RMK A01 T02280161  RH  066%=      5-min Rain = 0
KEN1 211005Z 03015KT 23/16 A3002 RMK A01 T02280161  RH  066%=      5-min Rain = 0
KEN1 211006Z 03015KT 23/16 A3002 RMK A01 T02270161  RH  066%=      5-min Rain = 0
KEN1 211007Z 03017KT 23/16 A3002 RMK A01 T02270161  RH  067%=      5-min Rain = 0
KEN1 211008Z 03016KT 23/16 A3002 RMK A01 T02260162  RH  067%=      5-min Rain = 0
KEN1 211009Z 03017KT 23/16 A3002 RMK A01 T02260162  RH  067%=      5-min Rain = 0
KEN1 211010Z 03015KT 23/16 A3002 RMK A01 T02250163  RH  068%=      5-min Rain = 0
KEN1 211011Z 03016KT 23/16 A3002 RMK A01 T02250163  RH  068%=      5-min Rain = 0
KEN1 211012Z 03015G20KT 22/16 A3002 RMK A01 T02240163  RH  068%=      5-min Rain = 0
KEN1 211013Z 04015KT 22/16 A3002 RMK A01 T02240163  RH  068%=      5-min Rain = 0
KEN1 211014Z 04017KT 22/16 A3002 RMK A01 T02240163  RH  069%=      5-min Rain = 0
KEN1 211015Z 04017KT 22/16 A3002 RMK A01 T02230164  RH  069%=      5-min Rain = 0
KEN1 211016Z 03016KT 22/16 A3002 RMK A01 T02230164  RH  069%=      5-min Rain = 0
KEN1 211017Z 04017KT 22/16 A3002 RMK A01 T02230164  RH  069%=      5-min Rain = 0
KEN1 211018Z 03015G20KT 22/16 A3002 RMK A01 T02220164  RH  070%=      5-min Rain = 0
KEN1 211019Z 03017KT 22/16 A3002 RMK A01 T02220164  RH  070%=      5-min Rain = 0
KEN1 211020Z 03019KT 22/17 A3002 RMK A01 T02210165  RH  070%=      5-min Rain = 0
KEN1 211021Z 03019KT 22/17 A3002 RMK A01 T02210165  RH  070%=      5-min Rain = 0
KEN1 211022Z 03017KT 22/17 A3002 RMK A01 T02210165  RH  071%=      5-min Rain = 0
KEN1 211023Z 04016KT 22/17 A3002 RMK A01 T02200165  RH  071%=      5-min Rain = 0
KEN1 211024Z 04016KT 22/17 A3002 RMK A01 T02200165  RH  071%=      5-min Rain = 0
KEN1 211025Z 04018KT 22/17 A3002 RMK A01 T02190165  RH  071%=      5-min Rain = 0
KEN1 211026Z 04016KT 22/17 A3002 RMK A01 T02190165  RH  071%=      5-min Rain = 0
KEN1 211027Z 04020KT 22/17 A3002 RMK A01 T02190165  RH  072%=      5-min Rain = 0
KEN1 211028Z 03018G24KT 22/17 A3003 RMK A01 T02190165  RH  072%=      5-min Rain = 0
KEN1 211029Z 04017KT 22/17 A3003 RMK A01 T02180165  RH  072%=      5-min Rain = 0
KEN1 211030Z 03014KT 22/17 A3003 RMK A01 T02180165  RH  072%=      5-min Rain = 0
KEN1 211031Z 03015KT 22/17 A3003 RMK A01 T02180165  RH  072%=      5-min Rain = 0
KEN1 211032Z 03013KT 22/17 A3003 RMK A01 T02180165  RH  072%=      5-min Rain = 0
KEN1 211033Z 04017KT 22/17 A3003 RMK A01 T02180166  RH  072%=      5-min Rain = 0
KEN1 211034Z 03015KT 22/17 A3003 RMK A01 T02170165  RH  072%=      5-min Rain = 0
KEN1 211035Z 03016KT 22/17 A3003 RMK A01 T02170166  RH  072%=      5-min Rain = 0
KEN1 211036Z 03015KT 22/17 A3003 RMK A01 T02170166  RH  073%=      5-min Rain = 0
KEN1 211037Z 03014G19KT 22/17 A3003 RMK A01 T02160166  RH  073%=      5-min Rain = 0
KEN1 211038Z 03013KT 22/17 A3003 RMK A01 T02160166  RH  073%=      5-min Rain = 0
KEN1 211039Z 04014G21KT 22/17 A3003 RMK A01 T02160166  RH  073%=      5-min Rain = 0
KEN1 211040Z 03018KT 22/17 A3003 RMK A01 T02160166  RH  073%=      5-min Rain = 0
KEN1 211041Z 04015KT 22/17 A3003 RMK A01 T02160165  RH  073%=      5-min Rain = 0
KEN1 211042Z 04014KT 22/17 A3003 RMK A01 T02150165  RH  073%=      5-min Rain = 0
KEN1 211043Z 04011KT 22/17 A3003 RMK A01 T02150165  RH  073%=      5-min Rain = 0
KEN1 211044Z 04013G18KT 22/17 A3003 RMK A01 T02150165  RH  073%=      5-min Rain = 0
KEN1 211045Z 04016KT 21/17 A3003 RMK A01 T02140165  RH  073%=      5-min Rain = 0
KEN1 211046Z 04015KT 21/16 A3003 RMK A01 T02140164  RH  073%=      5-min Rain = 0
KEN1 211047Z 04014KT 21/16 A3003 RMK A01 T02140164  RH  073%=      5-min Rain = 0
KEN1 211048Z 03014KT 22/17 A3003 RMK A01 T02150165  RH  073%=      5-min Rain = 0
KEN1 211049Z 04012KT 21/16 A3003 RMK A01 T02140164  RH  073%=      5-min Rain = 0
KEN1 211050Z 03013KT 21/16 A3003 RMK A01 T02140164  RH  073%=      5-min Rain = 0
KEN1 211051Z 04011KT 21/16 A3003 RMK A01 T02140164  RH  073%=      5-min Rain = 0
KEN1 211052Z 04015KT 21/16 A3003 RMK A01 T02140164  RH  073%=      5-min Rain = 0
KEN1 211053Z 04013KT 21/16 A3003 RMK A01 T02130164  RH  073%=      5-min Rain = 0
KEN1 211054Z 04016KT 21/16 A3003 RMK A01 T02130164  RH  073%=      5-min Rain = 0
KEN1 211055Z 04015KT 21/16 A3003 RMK A01 T02130164  RH  073%=      5-min Rain = 0
KEN1 211056Z 04014KT 21/16 A3003 RMK A01 T02130164  RH  073%=      5-min Rain = 0
KEN1 211057Z 04014KT 21/16 A3003 RMK A01 T02130164  RH  073%=      5-min Rain = 0
KEN1 211058Z 04012KT 21/16 A3003 RMK A01 T02130164  RH  073%=      5-min Rain = 0
KEN1 211059Z 04015KT 21/16 A3003 RMK A01 T02130164  RH  073%=      5-min Rain = 0
KEN1 211100Z 04013KT 21/16 A3003 RMK A01 T02130164  RH  073%=      5-min Rain = 0
KEN1 211101Z 04014KT 21/16 A3003 RMK A01 T02120163  RH  073%=      5-min Rain = 0
KEN1 211102Z 04016KT 21/16 A3003 RMK A01 T02120163  RH  074%=      5-min Rain = 0
KEN1 211103Z 04014KT 21/16 A3003 RMK A01 T02120163  RH  074%=      5-min Rain = 0
KEN1 211104Z 04014KT 21/16 A3002 RMK A01 T02120163  RH  074%=      5-min Rain = 0
KEN1 211105Z 04015KT 21/16 A3003 RMK A01 T02120163  RH  074%=      5-min Rain = 0
KEN1 211106Z 04012KT 21/16 A3003 RMK A01 T02120163  RH  074%=      5-min Rain = 0
KEN1 211107Z 03014KT 21/16 A3003 RMK A01 T02120163  RH  074%=      5-min Rain = 0
KEN1 211108Z 04012KT 21/16 A3003 RMK A01 T02120163  RH  074%=      5-min Rain = 0
KEN1 211109Z 04014KT 21/16 A3003 RMK A01 T02110163  RH  074%=      5-min Rain = 0
KEN1 211110Z 04012G17KT 21/16 A3002 RMK A01 T02110163  RH  074%=      5-min Rain = 0
KEN1 211111Z 04015KT 21/16 A3002 RMK A01 T02110163  RH  074%=      5-min Rain = 0
KEN1 211112Z 04014KT 21/16 A3002 RMK A01 T02110162  RH  074%=      5-min Rain = 0
KEN1 211113Z 04012KT 21/16 A3002 RMK A01 T02110163  RH  074%=      5-min Rain = 0
KEN1 211114Z 04010KT 21/16 A3002 RMK A01 T02100162  RH  074%=      5-min Rain = 0
KEN1 211115Z 04010KT 21/16 A3002 RMK A01 T02100163  RH  074%=      5-min Rain = 0
KEN1 211116Z 04010KT 21/16 A3002 RMK A01 T02090162  RH  074%=      5-min Rain = 0
KEN1 211117Z 05012KT 21/16 A3002 RMK A01 T02090162  RH  074%=      5-min Rain = 0
KEN1 211118Z 05012KT 21/16 A3002 RMK A01 T02090162  RH  075%=      5-min Rain = 0
KEN1 211119Z 05011KT 21/16 A3002 RMK A01 T02090163  RH  075%=      5-min Rain = 0
KEN1 211120Z 04010KT 21/16 A3002 RMK A01 T02090162  RH  075%=      5-min Rain = 0
KEN1 211121Z 04011KT 21/16 A3002 RMK A01 T02090162  RH  075%=      5-min Rain = 0
KEN1 211122Z 04012KT 21/16 A3002 RMK A01 T02090162  RH  075%=      5-min Rain = 0
KEN1 211123Z 04009KT 21/16 A3003 RMK A01 T02090162  RH  075%=      5-min Rain = 0
KEN1 211124Z 04009KT 21/16 A3003 RMK A01 T02090162  RH  075%=      5-min Rain = 0
KEN1 211125Z 04010KT 21/16 A3003 RMK A01 T02090162  RH  075%=      5-min Rain = 0
KEN1 211126Z 04010KT 21/16 A3002 RMK A01 T02080162  RH  075%=      5-min Rain = 0
KEN1 211127Z 04009KT 21/16 A3002 RMK A01 T02080162  RH  075%=      5-min Rain = 0
KEN1 211128Z 04012KT 21/16 A3002 RMK A01 T02080162  RH  075%=      5-min Rain = 0
KEN1 211129Z 04009KT 21/16 A3002 RMK A01 T02080162  RH  075%=      5-min Rain = 0
KEN1 211130Z 04009KT 21/16 A3002 RMK A01 T02080162  RH  075%=      5-min Rain = 0
KEN1 211131Z 04010KT 21/16 A3002 RMK A01 T02080162  RH  075%=      5-min Rain = 0
KEN1 211132Z 03009KT 21/16 A3002 RMK A01 T02080162  RH  075%=      5-min Rain = 0
KEN1 211133Z 04010KT 21/16 A3002 RMK A01 T02080162  RH  075%=      5-min Rain = 0
KEN1 211134Z 04009KT 21/16 A3002 RMK A01 T02080162  RH  075%=      5-min Rain = 0
KEN1 211135Z 04009KT 21/16 A3002 RMK A01 T02080163  RH  075%=      5-min Rain = 0
KEN1 211136Z 04008KT 21/16 A3002 RMK A01 T02070162  RH  075%=      5-min Rain = 0
KEN1 211137Z 04008KT 21/16 A3002 RMK A01 T02080163  RH  075%=      5-min Rain = 0
KEN1 211138Z 04009KT 21/16 A3003 RMK A01 T02070163  RH  075%=      5-min Rain = 0
KEN1 211139Z 04009KT 21/16 A3003 RMK A01 T02070162  RH  076%=      5-min Rain = 0
KEN1 211140Z 04008KT 21/16 A3003 RMK A01 T02070162  RH  076%=      5-min Rain = 0
KEN1 211141Z 04007KT 21/16 A3003 RMK A01 T02070162  RH  076%=      5-min Rain = 0
KEN1 211142Z 04007KT 21/16 A3003 RMK A01 T02070162  RH  076%=      5-min Rain = 0
KEN1 211143Z 03008KT 21/16 A3003 RMK A01 T02070163  RH  076%=      5-min Rain = 0
KEN1 211144Z 03007KT 21/16 A3003 RMK A01 T02060162  RH  076%=      5-min Rain = 0
KEN1 211145Z 03006KT 21/16 A3003 RMK A01 T02060162  RH  076%=      5-min Rain = 0
KEN1 211146Z 03008KT 21/16 A3003 RMK A01 T02060162  RH  076%=      5-min Rain = 0
KEN1 211147Z 03007KT 21/16 A3003 RMK A01 T02060163  RH  076%=      5-min Rain = 0
KEN1 211148Z 03008KT 21/16 A3003 RMK A01 T02060162  RH  076%=      5-min Rain = 0
KEN1 211149Z 03008KT 21/16 A3003 RMK A01 T02060162  RH  076%=      5-min Rain = 0
KEN1 211150Z 04007KT 21/16 A3003 RMK A01 T02060162  RH  076%=      5-min Rain = 0
KEN1 211151Z 03007KT 21/16 A3003 RMK A01 T02060163  RH  076%=      5-min Rain = 0
KEN1 211152Z 03007KT 21/16 A3003 RMK A01 T02060163  RH  076%=      5-min Rain = 0
KEN1 211153Z 03007KT 21/16 A3003 RMK A01 T02060162  RH  076%=      5-min Rain = 0
KEN1 211154Z 03008KT 21/16 A3003 RMK A01 T02060163  RH  076%=      5-min Rain = 0
KEN1 211155Z 03007KT 21/16 A3003 RMK A01 T02060163  RH  076%=      5-min Rain = 0
KEN1 211156Z 03007KT 21/16 A3003 RMK A01 T02060163  RH  076%=      5-min Rain = 0
KEN1 211157Z 03007KT 21/16 A3003 RMK A01 T02060163  RH  076%=      5-min Rain = 0
KEN1 211158Z 04007KT 21/16 A3003 RMK A01 T02050163  RH  077%=      5-min Rain = 0
KEN1 211159Z 04008KT 21/16 A3003 RMK A01 T02050163  RH  077%=      5-min Rain = 0
KEN1 211200Z 04007KT 21/16 A3003 RMK A01 T02050163  RH  077%=      5-min Rain = 0
KEN1 211201Z 04009KT 21/16 A3003 RMK A01 T02050163  RH  077%=      5-min Rain = 0
KEN1 211202Z 04008KT 21/16 A3003 RMK A01 T02050162  RH  077%=      5-min Rain = 0
KEN1 211203Z 04008KT 21/16 A3003 RMK A01 T02050162  RH  077%=      5-min Rain = 0
KEN1 211204Z 04007KT 21/16 A3003 RMK A01 T02050162  RH  077%=      5-min Rain = 0
KEN1 211205Z 04008KT 21/16 A3003 RMK A01 T02050162  RH  077%=      5-min Rain = 0
KEN1 211206Z 03007KT 21/16 A3003 RMK A01 T02050163  RH  077%=      5-min Rain = 0
KEN1 211207Z 03007KT 21/16 A3003 RMK A01 T02050163  RH  077%=      5-min Rain = 0
KEN1 211208Z 03006KT 21/16 A3003 RMK A01 T02050163  RH  077%=      5-min Rain = 0
KEN1 211209Z 03006KT 21/16 A3004 RMK A01 T02050163  RH  077%=      5-min Rain = 0
KEN1 211210Z 03006KT 21/16 A3004 RMK A01 T02050163  RH  077%=      5-min Rain = 0
KEN1 211211Z 02006KT 21/16 A3004 RMK A01 T02050163  RH  077%=      5-min Rain = 0
KEN1 211212Z 02007KT 21/16 A3004 RMK A01 T02050163  RH  077%=      5-min Rain = 0
KEN1 211213Z 02006KT 20/16 A3004 RMK A01 T02040163  RH  077%=      5-min Rain = 0
KEN1 211214Z 01006KT 20/16 A3004 RMK A01 T02040163  RH  077%=      5-min Rain = 0
KEN1 211215Z 01007KT 20/16 A3004 RMK A01 T02040163  RH  077%=      5-min Rain = 0
KEN1 211216Z 01008KT 20/16 A3004 RMK A01 T02040162  RH  077%=      5-min Rain = 0
KEN1 211217Z 01008KT 20/16 A3004 RMK A01 T02040163  RH  077%=      5-min Rain = 0
KEN1 211218Z 01009KT 20/16 A3004 RMK A01 T02040162  RH  077%=      5-min Rain = 0
KEN1 211219Z 00008KT 20/16 A3004 RMK A01 T02040162  RH  077%=      5-min Rain = 0
KEN1 211220Z 00008KT 20/16 A3005 RMK A01 T02040162  RH  077%=      5-min Rain = 0
KEN1 211221Z 00008KT 21/16 A3005 RMK A01 T02050163  RH  077%=      5-min Rain = 0
KEN1 211222Z 00007KT 21/16 A3005 RMK A01 T02060163  RH  076%=      5-min Rain = 0
KEN1 211223Z 00007KT 21/16 A3005 RMK A01 T02060163  RH  076%=      5-min Rain = 0
KEN1 211224Z 01006KT 21/16 A3005 RMK A01 T02060163  RH  076%=      5-min Rain = 0
KEN1 211225Z 01006KT 21/16 A3005 RMK A01 T02060163  RH  076%=      5-min Rain = 0
KEN1 211226Z 00006KT 21/16 A3005 RMK A01 T02060163  RH  076%=      5-min Rain = 0
KEN1 211227Z 00006KT 21/16 A3005 RMK A01 T02060163  RH  076%=      5-min Rain = 0
KEN1 211228Z 36006KT 21/16 A3005 RMK A01 T02060163  RH  076%=      5-min Rain = 0
KEN1 211229Z 36005KT 21/16 A3005 RMK A01 T02060163  RH  076%=      5-min Rain = 0
KEN1 211230Z 36005KT 21/16 A3005 RMK A01 T02070163  RH  076%=      5-min Rain = 0
KEN1 211231Z 36006KT 21/16 A3005 RMK A01 T02070163  RH  076%=      5-min Rain = 0
KEN1 211232Z 36006KT 21/16 A3005 RMK A01 T02070163  RH  076%=      5-min Rain = 0
KEN1 211233Z 35006KT 21/16 A3005 RMK A01 T02070163  RH  076%=      5-min Rain = 0
KEN1 211234Z 36007KT 21/16 A3005 RMK A01 T02080163  RH  076%=      5-min Rain = 0
KEN1 211235Z 00007KT 21/16 A3005 RMK A01 T02080163  RH  076%=      5-min Rain = 0
KEN1 211236Z 01007KT 21/16 A3005 RMK A01 T02080163  RH  076%=      5-min Rain = 0
KEN1 211237Z 01008KT 21/16 A3005 RMK A01 T02080163  RH  076%=      5-min Rain = 0
KEN1 211238Z 00008KT 21/16 A3005 RMK A01 T02080163  RH  076%=      5-min Rain = 0
KEN1 211239Z 01007KT 21/16 A3004 RMK A01 T02080163  RH  076%=      5-min Rain = 0
KEN1 211240Z 01006KT 21/16 A3004 RMK A01 T02070163  RH  076%=      5-min Rain = 0
KEN1 211241Z 01007KT 21/16 A3004 RMK A01 T02070163  RH  076%=      5-min Rain = 0
KEN1 211242Z 00007KT 21/16 A3004 RMK A01 T02080164  RH  076%=      5-min Rain = 0
KEN1 211243Z 01007KT 21/16 A3004 RMK A01 T02080163  RH  076%=      5-min Rain = 0
KEN1 211244Z 01009KT 21/16 A3005 RMK A01 T02080163  RH  076%=      5-min Rain = 0
KEN1 211245Z 01008KT 21/16 A3005 RMK A01 T02080164  RH  075%=      5-min Rain = 0
KEN1 211246Z 00009KT 21/16 A3005 RMK A01 T02080163  RH  075%=      5-min Rain = 0
KEN1 211247Z 00008KT 21/16 A3005 RMK A01 T02090163  RH  075%=      5-min Rain = 0
KEN1 211248Z 00007KT 21/16 A3005 RMK A01 T02090163  RH  075%=      5-min Rain = 0
KEN1 211249Z 00007KT 21/16 A3005 RMK A01 T02090163  RH  075%=      5-min Rain = 0
KEN1 211250Z 01008KT 21/16 A3005 RMK A01 T02100163  RH  075%=      5-min Rain = 0
KEN1 211251Z 01006KT 21/16 A3005 RMK A01 T02100163  RH  075%=      5-min Rain = 0
KEN1 211252Z 01006KT 21/16 A3005 RMK A01 T02100163  RH  075%=      5-min Rain = 0
KEN1 211253Z 01007KT 21/16 A3005 RMK A01 T02100163  RH  075%=      5-min Rain = 0
KEN1 211254Z 01007KT 21/16 A3005 RMK A01 T02100163  RH  075%=      5-min Rain = 0
KEN1 211255Z 01008KT 21/16 A3005 RMK A01 T02100163  RH  074%=      5-min Rain = 0
KEN1 211256Z 01008KT 21/16 A3005 RMK A01 T02100163  RH  074%=      5-min Rain = 0
KEN1 211257Z 01008KT 21/16 A3005 RMK A01 T02100162  RH  074%=      5-min Rain = 0
KEN1 211258Z 01007KT 21/16 A3005 RMK A01 T02110163  RH  074%=      5-min Rain = 0
KEN1 211259Z 02008KT 21/16 A3005 RMK A01 T02110163  RH  074%=      5-min Rain = 0
KEN1 211300Z 01010KT 21/16 A3005 RMK A01 T02110162  RH  074%=      5-min Rain = 0
KEN1 211301Z 01008KT 21/16 A3005 RMK A01 T02110163  RH  074%=      5-min Rain = 0
KEN1 211302Z 01007KT 21/16 A3005 RMK A01 T02110163  RH  074%=      5-min Rain = 0
KEN1 211303Z 01008KT 21/16 A3005 RMK A01 T02110162  RH  073%=      5-min Rain = 0
KEN1 211304Z 01009KT 21/16 A3005 RMK A01 T02120162  RH  073%=      5-min Rain = 0
KEN1 211305Z 01008KT 21/16 A3005 RMK A01 T02120162  RH  073%=      5-min Rain = 0
KEN1 211306Z 01007KT 21/16 A3004 RMK A01 T02120163  RH  073%=      5-min Rain = 0
KEN1 211307Z 01007KT 21/16 A3004 RMK A01 T02120163  RH  073%=      5-min Rain = 0
KEN1 211308Z 01008KT 21/16 A3004 RMK A01 T02120162  RH  073%=      5-min Rain = 0
KEN1 211309Z 02008KT 21/16 A3004 RMK A01 T02120162  RH  073%=      5-min Rain = 0
KEN1 211310Z 01006KT 21/16 A3004 RMK A01 T02120163  RH  073%=      5-min Rain = 0
KEN1 211311Z 01006KT 21/16 A3004 RMK A01 T02120164  RH  074%=      5-min Rain = 0
KEN1 211312Z 01005KT 21/16 A3004 RMK A01 T02120164  RH  074%=      5-min Rain = 0
KEN1 211313Z 01005KT 21/16 A3005 RMK A01 T02120163  RH  074%=      5-min Rain = 0
KEN1 211314Z 01007KT 21/16 A3005 RMK A01 T02120163  RH  074%=      5-min Rain = 0
KEN1 211315Z 01007KT 21/16 A3005 RMK A01 T02120164  RH  074%=      5-min Rain = 0
KEN1 211316Z 01006KT 21/16 A3005 RMK A01 T02120164  RH  074%=      5-min Rain = 0
KEN1 211317Z 02007KT 21/17 A3005 RMK A01 T02110165  RH  075%=      5-min Rain = 0
KEN1 211318Z 02007KT 21/17 A3004 RMK A01 T02110165  RH  075%=      5-min Rain = 0
KEN1 211319Z 02007KT 21/16 A3005 RMK A01 T02110164  RH  075%=      5-min Rain = 0
KEN1 211320Z 02007KT 21/17 A3005 RMK A01 T02110165  RH  075%=      5-min Rain = 0
KEN1 211321Z 01007KT 21/16 A3005 RMK A01 T02110164  RH  074%=      5-min Rain = 0
KEN1 211322Z 01006KT 21/17 A3005 RMK A01 T02120165  RH  074%=      5-min Rain = 0
KEN1 211323Z 01005KT 21/17 A3005 RMK A01 T02120165  RH  074%=      5-min Rain = 0
KEN1 211324Z 03006KT 21/17 A3005 RMK A01 T02130165  RH  074%=      5-min Rain = 0
KEN1 211325Z 02006KT 21/16 A3005 RMK A01 T02130164  RH  074%=      5-min Rain = 0
KEN1 211326Z 01005KT 21/16 A3005 RMK A01 T02130164  RH  074%=      5-min Rain = 0
KEN1 211327Z 02006KT 21/17 A3005 RMK A01 T02130165  RH  074%=      5-min Rain = 0
KEN1 211328Z 02006KT 21/16 A3005 RMK A01 T02130164  RH  073%=      5-min Rain = 0
KEN1 211329Z 02007KT 21/16 A3005 RMK A01 T02140164  RH  073%=      5-min Rain = 0
KEN1 211330Z 02007KT 21/16 A3005 RMK A01 T02140163  RH  073%=      5-min Rain = 0
KEN1 211331Z 02006KT 21/16 A3005 RMK A01 T02140162  RH  072%=      5-min Rain = 0
KEN1 211332Z 02005KT 21/16 A3005 RMK A01 T02140164  RH  073%=      5-min Rain = 0
KEN1 211333Z 01005KT 22/16 A3005 RMK A01 T02150164  RH  073%=      5-min Rain = 0
KEN1 211334Z 03004KT 22/16 A3005 RMK A01 T02160164  RH  072%=      5-min Rain = 0
KEN1 211335Z 03003KT 22/17 A3005 RMK A01 T02170165  RH  072%=      5-min Rain = 0
KEN1 211336Z 04006KT 22/16 A3005 RMK A01 T02190164  RH  071%=      5-min Rain = 0
KEN1 211337Z 04005KT 22/16 A3005 RMK A01 T02190162  RH  070%=      5-min Rain = 0
KEN1 211338Z 03005KT 22/16 A3005 RMK A01 T02190163  RH  071%=      5-min Rain = 0
KEN1 211339Z 02004KT 22/16 A3005 RMK A01 T02190163  RH  071%=      5-min Rain = 0
KEN1 211340Z 02004KT 22/16 A3005 RMK A01 T02190164  RH  071%=      5-min Rain = 0
KEN1 211341Z 02004KT 22/16 A3006 RMK A01 T02190163  RH  070%=      5-min Rain = 0
KEN1 211342Z 03005KT 22/16 A3006 RMK A01 T02190163  RH  070%=      5-min Rain = 0
KEN1 211343Z 04005KT 22/16 A3006 RMK A01 T02190162  RH  070%=      5-min Rain = 0
KEN1 211344Z 03004KT 22/16 A3006 RMK A01 T02190163  RH  070%=      5-min Rain = 0
KEN1 211345Z 01006KT 22/16 A3006 RMK A01 T02190163  RH  070%=      5-min Rain = 0
KEN1 211346Z 02005KT 22/16 A3006 RMK A01 T02190163  RH  070%=      5-min Rain = 0
KEN1 211347Z 02005KT 22/16 A3006 RMK A01 T02190163  RH  070%=      5-min Rain = 0
KEN1 211348Z 02006KT 22/16 A3006 RMK A01 T02190163  RH  070%=      5-min Rain = 0
KEN1 211349Z 01006KT 22/16 A3006 RMK A01 T02190163  RH  070%=      5-min Rain = 0
KEN1 211350Z 00006KT 22/16 A3006 RMK A01 T02190162  RH  070%=      5-min Rain = 0
KEN1 211351Z 01005KT 22/16 A3007 RMK A01 T02190162  RH  070%=      5-min Rain = 0
KEN1 211352Z 00006KT 22/16 A3006 RMK A01 T02190162  RH  070%=      5-min Rain = 0
KEN1 211353Z 36006KT 22/16 A3006 RMK A01 T02180161  RH  070%=      5-min Rain = 0
KEN1 211354Z 00005KT 22/16 A3006 RMK A01 T02180161  RH  070%=      5-min Rain = 0
KEN1 211355Z 36007KT 22/16 A3006 RMK A01 T02190162  RH  070%=      5-min Rain = 0
KEN1 211356Z 35006KT 22/16 A3006 RMK A01 T02190161  RH  070%=      5-min Rain = 0
KEN1 211357Z 36007KT 22/16 A3006 RMK A01 T02190162  RH  070%=      5-min Rain = 0
KEN1 211358Z 01007KT 22/16 A3006 RMK A01 T02190163  RH  070%=      5-min Rain = 0
KEN1 211359Z 02006KT 22/16 A3006 RMK A01 T02190164  RH  071%=      5-min Rain = 0
KEN1 211400Z 02005KT 22/16 A3006 RMK A01 T02190163  RH  071%=      5-min Rain = 0
KEN1 211401Z 02005KT 22/16 A3006 RMK A01 T02190163  RH  071%=      5-min Rain = 0
KEN1 211402Z 02006KT 22/16 A3006 RMK A01 T02190163  RH  070%=      5-min Rain = 0
KEN1 211403Z 02005KT 22/16 A3006 RMK A01 T02190162  RH  070%=      5-min Rain = 0
KEN1 211404Z 01004KT 22/16 A3006 RMK A01 T02190162  RH  070%=      5-min Rain = 0
KEN1 211405Z 01005KT 22/16 A3006 RMK A01 T02190162  RH  070%=      5-min Rain = 0
KEN1 211406Z 00004KT 22/16 A3006 RMK A01 T02190162  RH  070%=      5-min Rain = 0
KEN1 211407Z 35004KT 22/16 A3006 RMK A01 T02190162  RH  070%=      5-min Rain = 0
KEN1 211408Z 35004KT 22/16 A3006 RMK A01 T02190162  RH  070%=      5-min Rain = 0
KEN1 211409Z 34004KT 22/16 A3006 RMK A01 T02200161  RH  070%=      5-min Rain = 0
KEN1 211410Z 33004KT 22/16 A3007 RMK A01 T02190162  RH  070%=      5-min Rain = 0
KEN1 211411Z 34005KT 22/16 A3007 RMK A01 T02200162  RH  070%=      5-min Rain = 0
KEN1 211412Z 35005KT 22/16 A3007 RMK A01 T02210162  RH  069%=      5-min Rain = 0
KEN1 211413Z 00005KT 22/16 A3006 RMK A01 T02220162  RH  069%=      5-min Rain = 0
KEN1 211414Z 01005KT 22/16 A3006 RMK A01 T02210162  RH  069%=      5-min Rain = 0
KEN1 211415Z 00006KT 22/16 A3006 RMK A01 T02210162  RH  069%=      5-min Rain = 0
KEN1 211416Z 36006KT 22/16 A3007 RMK A01 T02220162  RH  069%=      5-min Rain = 0
KEN1 211417Z 35005KT 22/16 A3007 RMK A01 T02230162  RH  068%=      5-min Rain = 0
KEN1 211418Z 34007KT 22/16 A3007 RMK A01 T02240163  RH  068%=      5-min Rain = 0
KEN1 211419Z 35006KT 22/16 A3007 RMK A01 T02240162  RH  068%=      5-min Rain = 0
KEN1 211420Z 34006KT 22/16 A3007 RMK A01 T02240162  RH  068%=      5-min Rain = 0
KEN1 211421Z 34005KT 22/16 A3007 RMK A01 T02240161  RH  067%=      5-min Rain = 0
KEN1 211422Z 00004KT 22/16 A3007 RMK A01 T02240162  RH  068%=      5-min Rain = 0
KEN1 211423Z 01005KT 23/16 A3007 RMK A01 T02250163  RH  068%=      5-min Rain = 0
KEN1 211424Z 00005KT 23/16 A3007 RMK A01 T02260162  RH  067%=      5-min Rain = 0
KEN1 211425Z 35006KT 23/16 A3007 RMK A01 T02250162  RH  067%=      5-min Rain = 0
KEN1 211426Z 00008KT 23/16 A3007 RMK A01 T02260162  RH  067%=      5-min Rain = 0
KEN1 211427Z 01007KT 23/16 A3007 RMK A01 T02270162  RH  067%=      5-min Rain = 0
KEN1 211428Z 01007KT 23/16 A3007 RMK A01 T02270162  RH  067%=      5-min Rain = 0
KEN1 211429Z 02006KT 23/16 A3007 RMK A01 T02270162  RH  067%=      5-min Rain = 0
KEN1 211430Z 02006KT 23/16 A3007 RMK A01 T02270162  RH  067%=      5-min Rain = 0
KEN1 211431Z 02005KT 23/16 A3007 RMK A01 T02270163  RH  067%=      5-min Rain = 0
KEN1 211432Z 02006KT 23/16 A3007 RMK A01 T02280163  RH  067%=      5-min Rain = 0
KEN1 211433Z 35007KT 23/16 A3007 RMK A01 T02290162  RH  066%=      5-min Rain = 0
KEN1 211434Z 01007KT 23/16 A3007 RMK A01 T02300161  RH  065%=      5-min Rain = 0
KEN1 211435Z 01008KT 23/16 A3007 RMK A01 T02300162  RH  065%=      5-min Rain = 0
KEN1 211436Z 01007KT 23/16 A3007 RMK A01 T02300161  RH  065%=      5-min Rain = 0
KEN1 211437Z 01009KT 23/16 A3007 RMK A01 T02310161  RH  065%=      5-min Rain = 0
KEN1 211438Z 02007KT 23/16 A3007 RMK A01 T02310161  RH  065%=      5-min Rain = 0
KEN1 211439Z 02009KT 23/16 A3007 RMK A01 T02310161  RH  065%=      5-min Rain = 0
KEN1 211440Z 01007KT 23/16 A3007 RMK A01 T02310161  RH  065%=      5-min Rain = 0
KEN1 211441Z 01008KT 23/16 A3007 RMK A01 T02300160  RH  065%=      5-min Rain = 0
KEN1 211442Z 36007KT 23/16 A3007 RMK A01 T02300160  RH  065%=      5-min Rain = 0
KEN1 211443Z 35006KT 23/16 A3007 RMK A01 T02300160  RH  065%=      5-min Rain = 0
KEN1 211444Z 34008KT 23/16 A3007 RMK A01 T02310160  RH  064%=      5-min Rain = 0
KEN1 211445Z 35006KT 23/16 A3007 RMK A01 T02330160  RH  063%=      5-min Rain = 0
KEN1 211446Z 35007KT 24/16 A3007 RMK A01 T02350161  RH  063%=      5-min Rain = 0
KEN1 211447Z 35009KT 24/16 A3007 RMK A01 T02360160  RH  063%=      5-min Rain = 0
KEN1 211448Z 35008KT 24/16 A3007 RMK A01 T02350160  RH  063%=      5-min Rain = 0
KEN1 211449Z 35008KT 23/16 A3007 RMK A01 T02340159  RH  063%=      5-min Rain = 0
KEN1 211450Z 01008KT 23/16 A3007 RMK A01 T02340160  RH  063%=      5-min Rain = 0
KEN1 211451Z 02009KT 24/16 A3007 RMK A01 T02350160  RH  063%=      5-min Rain = 0
KEN1 211452Z 02008KT 24/16 A3007 RMK A01 T02350160  RH  063%=      5-min Rain = 0
KEN1 211453Z 02007KT 24/16 A3007 RMK A01 T02350160  RH  063%=      5-min Rain = 0
KEN1 211454Z 02007KT 24/16 A3007 RMK A01 T02360160  RH  063%=      5-min Rain = 0
KEN1 211455Z 01007KT 24/16 A3008 RMK A01 T02360160  RH  062%=      5-min Rain = 0
KEN1 211456Z 01008KT 24/16 A3008 RMK A01 T02370160  RH  062%=      5-min Rain = 0
KEN1 211457Z 01007KT 24/16 A3008 RMK A01 T02360160  RH  062%=      5-min Rain = 0
KEN1 211458Z 01006KT 24/16 A3007 RMK A01 T02360160  RH  062%=      5-min Rain = 0
KEN1 211459Z 02006KT 24/16 A3007 RMK A01 T02360160  RH  062%=      5-min Rain = 0
KEN1 211500Z 02008KT 24/16 A3007 RMK A01 T02370161  RH  062%=      5-min Rain = 0
KEN1 211501Z 01008KT 24/16 A3008 RMK A01 T02370160  RH  062%=      5-min Rain = 0
KEN1 211502Z 00005KT 24/16 A3008 RMK A01 T02370160  RH  062%=      5-min Rain = 0
KEN1 211503Z 00005KT 24/16 A3008 RMK A01 T02370160  RH  062%=      5-min Rain = 0
KEN1 211504Z 34007KT 24/16 A3008 RMK A01 T02370160  RH  062%=      5-min Rain = 0
KEN1 211505Z 00006KT 24/16 A3008 RMK A01 T02390161  RH  061%=      5-min Rain = 0
KEN1 211506Z 35006KT 24/16 A3008 RMK A01 T02410160  RH  061%=      5-min Rain = 0
KEN1 211507Z 02006KT 24/16 A3008 RMK A01 T02410160  RH  061%=      5-min Rain = 0
KEN1 211508Z 00005KT 24/16 A3008 RMK A01 T02420161  RH  061%=      5-min Rain = 0
KEN1 211509Z 01005KT 24/16 A3008 RMK A01 T02420159  RH  060%=      5-min Rain = 0
KEN1 211510Z 02005KT 24/16 A3008 RMK A01 T02420160  RH  060%=      5-min Rain = 0
KEN1 211511Z 01005KT 24/16 A3008 RMK A01 T02410160  RH  060%=      5-min Rain = 0
KEN1 211512Z 35005KT 24/16 A3008 RMK A01 T02420160  RH  060%=      5-min Rain = 0
KEN1 211513Z 35006KT 24/16 A3008 RMK A01 T02430159  RH  059%=      5-min Rain = 0
KEN1 211514Z 34005KT 25/16 A3008 RMK A01 T02450159  RH  059%=      5-min Rain = 0
KEN1 211515Z 34004KT 25/16 A3008 RMK A01 T02450161  RH  059%=      5-min Rain = 0
KEN1 211516Z 35004KT 25/16 A3008 RMK A01 T02480161  RH  058%=      5-min Rain = 0
KEN1 211517Z 36004KT 25/16 A3008 RMK A01 T02500160  RH  057%=      5-min Rain = 0
KEN1 211518Z 03003KT 25/16 A3008 RMK A01 T02510161  RH  057%=      5-min Rain = 0
KEN1 211519Z 34005KT 25/16 A3008 RMK A01 T02520162  RH  057%=      5-min Rain = 0
KEN1 211520Z 01005KT 25/16 A3008 RMK A01 T02520161  RH  057%=      5-min Rain = 0
KEN1 211521Z 02006KT 25/16 A3008 RMK A01 T02520161  RH  057%=      5-min Rain = 0
KEN1 211522Z 02005KT 25/16 A3008 RMK A01 T02490160  RH  058%=      5-min Rain = 0
KEN1 211523Z 02004KT 25/16 A3008 RMK A01 T02470160  RH  058%=      5-min Rain = 0
KEN1 211524Z 03002KT 25/16 A3008 RMK A01 T02460160  RH  059%=      5-min Rain = 0
KEN1 211525Z 03001KT 25/16 A3008 RMK A01 T02450160  RH  059%=      5-min Rain = 0
KEN1 211526Z 36003KT 25/16 A3008 RMK A01 T02450160  RH  059%=      5-min Rain = 0
KEN1 211527Z 01005KT 25/16 A3008 RMK A01 T02450160  RH  059%=      5-min Rain = 0
KEN1 211528Z 36005KT 25/16 A3008 RMK A01 T02460160  RH  059%=      5-min Rain = 0
KEN1 211529Z 36005KT 25/16 A3008 RMK A01 T02470160  RH  058%=      5-min Rain = 0
KEN1 211530Z 01004KT 25/16 A3008 RMK A01 T02470160  RH  058%=      5-min Rain = 0
KEN1 211531Z 36006KT 25/16 A3008 RMK A01 T02470161  RH  059%=      5-min Rain = 0
KEN1 211532Z 34005KT 25/16 A3008 RMK A01 T02500162  RH  058%=      5-min Rain = 0
KEN1 211533Z 34005KT 25/16 A3008 RMK A01 T02510161  RH  057%=      5-min Rain = 0
KEN1 211534Z 34007KT 25/16 A3008 RMK A01 T02510161  RH  057%=      5-min Rain = 0
KEN1 211535Z 32006KT 25/16 A3008 RMK A01 T02510160  RH  057%=      5-min Rain = 0
KEN1 211536Z 32005KT 25/16 A3008 RMK A01 T02500159  RH  057%=      5-min Rain = 0
KEN1 211537Z 32003KT 25/16 A3008 RMK A01 T02480159  RH  058%=      5-min Rain = 0
KEN1 211538Z 32004KT 25/16 A3008 RMK A01 T02490160  RH  058%=      5-min Rain = 0
KEN1 211539Z 32006KT 25/16 A3008 RMK A01 T02500160  RH  057%=      5-min Rain = 0
KEN1 211540Z 32005KT 25/16 A3008 RMK A01 T02500159  RH  057%=      5-min Rain = 0
KEN1 211541Z 33004KT 25/16 A3008 RMK A01 T02500160  RH  058%=      5-min Rain = 0
KEN1 211542Z 33004KT 25/16 A3008 RMK A01 T02500160  RH  057%=      5-min Rain = 0
KEN1 211543Z 35005KT 25/16 A3008 RMK A01 T02500160  RH  057%=      5-min Rain = 0
KEN1 211544Z 01006KT 25/16 A3008 RMK A01 T02510161  RH  057%=      5-min Rain = 0
KEN1 211545Z 35007KT 25/16 A3008 RMK A01 T02520161  RH  057%=      5-min Rain = 0
KEN1 211546Z 34006KT 25/16 A3008 RMK A01 T02530160  RH  056%=      5-min Rain = 0
KEN1 211547Z 33005KT 25/16 A3008 RMK A01 T02520159  RH  056%=      5-min Rain = 0
KEN1 211548Z 31006KT 25/16 A3008 RMK A01 T02520160  RH  057%=      5-min Rain = 0
KEN1 211549Z 33006KT 25/16 A3008 RMK A01 T02510159  RH  057%=      5-min Rain = 0
KEN1 211550Z 33006KT 25/16 A3008 RMK A01 T02510159  RH  057%=      5-min Rain = 0
KEN1 211551Z 34006KT 25/16 A3008 RMK A01 T02510160  RH  057%=      5-min Rain = 0
KEN1 211552Z 35008KT 25/16 A3008 RMK A01 T02510159  RH  057%=      5-min Rain = 0
KEN1 211553Z 35007KT 25/16 A3008 RMK A01 T02510158  RH  056%=      5-min Rain = 0
KEN1 211554Z 35006KT 25/16 A3008 RMK A01 T02510158  RH  056%=      5-min Rain = 0
KEN1 211555Z 34007KT 25/16 A3008 RMK A01 T02510159  RH  057%=      5-min Rain = 0
KEN1 211556Z 34005KT 25/16 A3008 RMK A01 T02500159  RH  057%=      5-min Rain = 0
KEN1 211557Z 33005KT 25/16 A3008 RMK A01 T02500159  RH  057%=      5-min Rain = 0
KEN1 211558Z 34004KT 25/16 A3008 RMK A01 T02490159  RH  057%=      5-min Rain = 0
KEN1 211559Z 34004KT 25/16 A3008 RMK A01 T02490159  RH  057%=      5-min Rain = 0
KEN1 211600Z 34005KT 25/16 A3008 RMK A01 T02490159  RH  058%=      5-min Rain = 0
KEN1 211601Z 35007KT 25/16 A3008 RMK A01 T02500160  RH  057%=      5-min Rain = 0
KEN1 211602Z 34005KT 25/16 A3008 RMK A01 T02510160  RH  057%=      5-min Rain = 0
KEN1 211603Z 36006KT 25/16 A3008 RMK A01 T02530160  RH  056%=      5-min Rain = 0
KEN1 211604Z 35007KT 25/16 A3008 RMK A01 T02530160  RH  056%=      5-min Rain = 0
KEN1 211605Z 01007KT 25/16 A3008 RMK A01 T02530160  RH  056%=      5-min Rain = 0
KEN1 211606Z 02005KT 25/16 A3008 RMK A01 T02520159  RH  056%=      5-min Rain = 0
KEN1 211607Z 01005KT 25/16 A3008 RMK A01 T02510159  RH  057%=      5-min Rain = 0
KEN1 211608Z 35005KT 25/16 A3008 RMK A01 T02510160  RH  057%=      5-min Rain = 0
KEN1 211609Z 00005KT 25/16 A3008 RMK A01 T02530160  RH  056%=      5-min Rain = 0
KEN1 211610Z 34005KT 25/16 A3008 RMK A01 T02540161  RH  056%=      5-min Rain = 0
KEN1 211611Z 33005KT 26/16 A3008 RMK A01 T02550160  RH  056%=      5-min Rain = 0
KEN1 211612Z 33006KT 26/16 A3008 RMK A01 T02550160  RH  056%=      5-min Rain = 0
KEN1 211613Z 35007KT 26/16 A3008 RMK A01 T02550160  RH  056%=      5-min Rain = 0
KEN1 211614Z 01007KT 26/16 A3008 RMK A01 T02550159  RH  055%=      5-min Rain = 0
KEN1 211615Z 01007KT 26/16 A3008 RMK A01 T02550159  RH  055%=      5-min Rain = 0
KEN1 211616Z 01008KT 25/16 A3008 RMK A01 T02540159  RH  056%=      5-min Rain = 0
KEN1 211617Z 01008KT 25/16 A3008 RMK A01 T02530159  RH  056%=      5-min Rain = 0
KEN1 211618Z 02007KT 25/16 A3008 RMK A01 T02540159  RH  056%=      5-min Rain = 0
KEN1 211619Z 02007KT 26/16 A3008 RMK A01 T02550160  RH  056%=      5-min Rain = 0
KEN1 211620Z 03007KT 26/16 A3008 RMK A01 T02560160  RH  055%=      5-min Rain = 0
KEN1 211621Z 03006KT 26/16 A3008 RMK A01 T02560160  RH  055%=      5-min Rain = 0
KEN1 211622Z 03006KT 26/16 A3009 RMK A01 T02550159  RH  055%=      5-min Rain = 0
KEN1 211623Z 01007KT 26/16 A3009 RMK A01 T02550160  RH  056%=      5-min Rain = 0
KEN1 211624Z 36007KT 26/16 A3009 RMK A01 T02560159  RH  055%=      5-min Rain = 0
KEN1 211625Z 35007KT 26/16 A3009 RMK A01 T02570160  RH  055%=      5-min Rain = 0
KEN1 211626Z 00006KT 26/16 A3009 RMK A01 T02580160  RH  055%=      5-min Rain = 0
KEN1 211627Z 01005KT 26/16 A3009 RMK A01 T02580159  RH  054%=      5-min Rain = 0
KEN1 211628Z 36006KT 26/16 A3009 RMK A01 T02590160  RH  055%=      5-min Rain = 0
KEN1 211629Z 01008KT 26/16 A3009 RMK A01 T02600161  RH  054%=      5-min Rain = 0
KEN1 211630Z 36005KT 26/16 A3009 RMK A01 T02620162  RH  054%=      5-min Rain = 0
KEN1 211631Z 01007KT 27/16 A3009 RMK A01 T02660163  RH  053%=      5-min Rain = 0
KEN1 211632Z 36007KT 27/16 A3009 RMK A01 T02660160  RH  052%=      5-min Rain = 0
KEN1 211633Z 00005KT 26/16 A3009 RMK A01 T02630160  RH  053%=      5-min Rain = 0
KEN1 211634Z 36006KT 26/16 A3009 RMK A01 T02630161  RH  053%=      5-min Rain = 0
KEN1 211635Z 34006KT 26/16 A3009 RMK A01 T02630160  RH  053%=      5-min Rain = 0
KEN1 211636Z 34005KT 26/16 A3008 RMK A01 T02620159  RH  053%=      5-min Rain = 0
KEN1 211637Z 01004KT 26/16 A3008 RMK A01 T02610160  RH  054%=      5-min Rain = 0
KEN1 211638Z 03007KT 26/16 A3008 RMK A01 T02610161  RH  054%=      5-min Rain = 0
KEN1 211639Z 02009KT 26/16 A3008 RMK A01 T02640162  RH  054%=      5-min Rain = 0
KEN1 211640Z 01008KT 27/16 A3008 RMK A01 T02660161  RH  052%=      5-min Rain = 0
KEN1 211641Z 03007KT 27/16 A3008 RMK A01 T02660160  RH  052%=      5-min Rain = 0
KEN1 211642Z 03006KT 27/16 A3008 RMK A01 T02670159  RH  052%=      5-min Rain = 0
KEN1 211643Z 02007KT 27/16 A3008 RMK A01 T02660159  RH  052%=      5-min Rain = 0
KEN1 211644Z 02006KT 27/16 A3008 RMK A01 T02650160  RH  052%=      5-min Rain = 0
KEN1 211645Z 03008KT 27/16 A3008 RMK A01 T02670162  RH  052%=      5-min Rain = 0
KEN1 211646Z 00008KT 27/16 A3008 RMK A01 T02710161  RH  051%=      5-min Rain = 0
KEN1 211647Z 01009KT 27/16 A3008 RMK A01 T02730161  RH  050%=      5-min Rain = 0
KEN1 211648Z 01006KT 27/16 A3008 RMK A01 T02720160  RH  050%=      5-min Rain = 0
KEN1 211649Z 00005KT 27/16 A3008 RMK A01 T02700161  RH  051%=      5-min Rain = 0
KEN1 211650Z 03005KT 27/16 A3008 RMK A01 T02720163  RH  051%=      5-min Rain = 0
KEN1 211651Z 05007KT 27/16 A3008 RMK A01 T02730162  RH  051%=      5-min Rain = 0
KEN1 211652Z 03008KT 27/16 A3008 RMK A01 T02720162  RH  051%=      5-min Rain = 0
KEN1 211653Z 02009KT 27/16 A3008 RMK A01 T02710162  RH  051%=      5-min Rain = 0
KEN1 211654Z 02010KT 27/16 A3008 RMK A01 T02710162  RH  051%=      5-min Rain = 0
KEN1 211655Z 02007KT 27/16 A3008 RMK A01 T02710162  RH  051%=      5-min Rain = 0
KEN1 211656Z 03008KT 27/16 A3008 RMK A01 T02710162  RH  051%=      5-min Rain = 0
KEN1 211657Z 03007KT 27/16 A3008 RMK A01 T02690162  RH  052%=      5-min Rain = 0
KEN1 211658Z 02008KT 27/16 A3008 RMK A01 T02680163  RH  052%=      5-min Rain = 0
KEN1 211659Z 02009KT 27/16 A3008 RMK A01 T02680162  RH  052%=      5-min Rain = 0
KEN1 211700Z 03007KT 27/16 A3008 RMK A01 T02690162  RH  052%=      5-min Rain = 0
KEN1 211701Z 02008KT 27/16 A3009 RMK A01 T02690162  RH  052%=      5-min Rain = 0
KEN1 211702Z 02006KT 27/16 A3009 RMK A01 T02690162  RH  052%=      5-min Rain = 0
KEN1 211703Z 03004KT 27/16 A3009 RMK A01 T02680162  RH  052%=      5-min Rain = 0
KEN1 211704Z 01004KT 27/16 A3009 RMK A01 T02680162  RH  052%=      5-min Rain = 0
KEN1 211705Z 01002KT 27/16 A3009 RMK A01 T02680162  RH  052%=      5-min Rain = 0
KEN1 211706Z 02007KT 27/16 A3009 RMK A01 T02690164  RH  052%=      5-min Rain = 0
KEN1 211707Z 03008KT 27/17 A3009 RMK A01 T02720165  RH  052%=      5-min Rain = 0
KEN1 211708Z 03009KT 27/16 A3009 RMK A01 T02730163  RH  051%=      5-min Rain = 0
KEN1 211709Z 03007KT 27/16 A3009 RMK A01 T02720163  RH  051%=      5-min Rain = 0
KEN1 211710Z 01008KT 27/16 A3009 RMK A01 T02720164  RH  052%=      5-min Rain = 0
KEN1 211711Z 01007KT 27/16 A3009 RMK A01 T02720163  RH  051%=      5-min Rain = 0
KEN1 211712Z 01005KT 27/16 A3009 RMK A01 T02720163  RH  051%=      5-min Rain = 0
KEN1 211713Z 03005KT 27/16 A3009 RMK A01 T02720164  RH  052%=      5-min Rain = 0
KEN1 211714Z 03007KT 27/16 A3009 RMK A01 T02720162  RH  051%=      5-min Rain = 0
KEN1 211715Z 04007KT 27/16 A3009 RMK A01 T02720162  RH  051%=      5-min Rain = 0
KEN1 211716Z 04008KT 27/16 A3009 RMK A01 T02710163  RH  051%=      5-min Rain = 0
KEN1 211717Z 02009KT 27/16 A3009 RMK A01 T02730163  RH  051%=      5-min Rain = 0
KEN1 211718Z 02007KT 27/16 A3009 RMK A01 T02720162  RH  051%=      5-min Rain = 0
KEN1 211719Z 03006KT 27/16 A3009 RMK A01 T02710162  RH  051%=      5-min Rain = 0
KEN1 211720Z 05008KT 27/16 A3009 RMK A01 T02720164  RH  052%=      5-min Rain = 0
KEN1 211721Z 05008KT 27/16 A3009 RMK A01 T02730163  RH  051%=      5-min Rain = 0
KEN1 211722Z 05007KT 27/16 A3009 RMK A01 T02730164  RH  051%=      5-min Rain = 0
KEN1 211723Z 05006KT 27/16 A3009 RMK A01 T02730163  RH  051%=      5-min Rain = 0
KEN1 211724Z 04005KT 27/16 A3009 RMK A01 T02730164  RH  051%=      5-min Rain = 0
KEN1 211725Z 03007KT 27/17 A3009 RMK A01 T02730165  RH  052%=      5-min Rain = 0
KEN1 211726Z 03007KT 28/16 A3009 RMK A01 T02760163  RH  050%=      5-min Rain = 0
KEN1 211727Z 02006KT 28/16 A3009 RMK A01 T02770162  RH  050%=      5-min Rain = 0
KEN1 211728Z 01006KT 28/16 A3009 RMK A01 T02750160  RH  050%=      5-min Rain = 0
KEN1 211729Z 01007KT 27/16 A3009 RMK A01 T02740160  RH  050%=      5-min Rain = 0
KEN1 211730Z 02007KT 27/16 A3009 RMK A01 T02740160  RH  050%=      5-min Rain = 0
KEN1 211731Z 03006KT 27/16 A3009 RMK A01 T02740161  RH  050%=      5-min Rain = 0
KEN1 211732Z 03004KT 28/16 A3009 RMK A01 T02750160  RH  049%=      5-min Rain = 0
KEN1 211733Z 04004KT 28/16 A3009 RMK A01 T02750160  RH  049%=      5-min Rain = 0
KEN1 211734Z 06005KT 28/16 A3009 RMK A01 T02760162  RH  050%=      5-min Rain = 0
KEN1 211735Z 05006KT 28/16 A3009 RMK A01 T02770163  RH  050%=      5-min Rain = 0
KEN1 211736Z 06007KT 28/16 A3009 RMK A01 T02780163  RH  049%=      5-min Rain = 0
KEN1 211737Z 04007KT 28/16 A3009 RMK A01 T02820164  RH  049%=      5-min Rain = 0
KEN1 211738Z 03006KT 28/16 A3009 RMK A01 T02840164  RH  048%=      5-min Rain = 0
KEN1 211739Z 03005KT 29/16 A3009 RMK A01 T02860164  RH  048%=      5-min Rain = 0
KEN1 211740Z 06007KT 29/16 A3009 RMK A01 T02880164  RH  047%=      5-min Rain = 0
KEN1 211741Z 05006KT 29/17 A3009 RMK A01 T02900166  RH  047%=      5-min Rain = 0
KEN1 211742Z 06005G10KT 29/16 A3009 RMK A01 T02920161  RH  045%=      5-min Rain = 0
KEN1 211743Z 06008KT 29/16 A3009 RMK A01 T02910162  RH  046%=      5-min Rain = 0
KEN1 211744Z 04009KT 29/16 A3009 RMK A01 T02890163  RH  047%=      5-min Rain = 0
KEN1 211745Z 03007KT 29/16 A3009 RMK A01 T02880161  RH  046%=      5-min Rain = 0
KEN1 211746Z 03005KT 29/16 A3009 RMK A01 T02850159  RH  046%=      5-min Rain = 0
KEN1 211747Z 07004KT 28/16 A3009 RMK A01 T02830161  RH  048%=      5-min Rain = 0
KEN1 211748Z 07006KT 28/16 A3009 RMK A01 T02840163  RH  048%=      5-min Rain = 0
KEN1 211749Z 03007KT 29/16 A3009 RMK A01 T02860164  RH  048%=      5-min Rain = 0
KEN1 211750Z 02007KT 29/16 A3009 RMK A01 T02870162  RH  047%=      5-min Rain = 0
KEN1 211751Z 02005KT 29/16 A3009 RMK A01 T02860162  RH  047%=      5-min Rain = 0
KEN1 211752Z 02004KT 28/16 A3009 RMK A01 T02840161  RH  047%=      5-min Rain = 0
KEN1 211753Z 01005KT 28/16 A3009 RMK A01 T02840162  RH  048%=      5-min Rain = 0
KEN1 211754Z 06005KT 28/16 A3009 RMK A01 T02840162  RH  047%=      5-min Rain = 0
KEN1 211755Z 07002KT 28/16 A3009 RMK A01 T02840161  RH  047%=      5-min Rain = 0
KEN1 211756Z 07004KT 28/16 A3009 RMK A01 T02830162  RH  048%=      5-min Rain = 0
KEN1 211757Z 06008KT 29/16 A3009 RMK A01 T02850162  RH  047%=      5-min Rain = 0
KEN1 211758Z 05007KT 29/16 A3009 RMK A01 T02870162  RH  047%=      5-min Rain = 0
KEN1 211759Z 06006KT 29/16 A3009 RMK A01 T02880162  RH  046%=      5-min Rain = 0
KEN1 211800Z 05005KT 29/16 A3009 RMK A01 T02900162  RH  046%=      5-min Rain = 0
KEN1 211801Z 06004KT 29/16 A3009 RMK A01 T02890162  RH  046%=      5-min Rain = 0
KEN1 211802Z 03006KT 29/16 A3009 RMK A01 T02890163  RH  047%=      5-min Rain = 0
KEN1 211803Z 04007KT 29/16 A3009 RMK A01 T02890163  RH  046%=      5-min Rain = 0
KEN1 211804Z 02006KT 29/16 A3009 RMK A01 T02910163  RH  046%=      5-min Rain = 0
KEN1 211805Z 03004KT 29/16 A3009 RMK A01 T02920162  RH  045%=      5-min Rain = 0
KEN1 211806Z 05007KT 29/16 A3009 RMK A01 T02920164  RH  046%=      5-min Rain = 0
KEN1 211807Z 06006KT 29/16 A3009 RMK A01 T02940163  RH  045%=      5-min Rain = 0
KEN1 211808Z 06005KT 29/16 A3009 RMK A01 T02930163  RH  045%=      5-min Rain = 0
KEN1 211809Z 05005KT 29/16 A3009 RMK A01 T02930164  RH  046%=      5-min Rain = 0
KEN1 211810Z 04008KT 30/17 A3009 RMK A01 T02960166  RH  045%=      5-min Rain = 0
KEN1 211811Z 07009KT 30/17 A3009 RMK A01 T02980166  RH  045%=      5-min Rain = 0
KEN1 211812Z 07007KT 30/17 A3009 RMK A01 T02980165  RH  045%=      5-min Rain = 0
KEN1 211813Z 06007KT 30/17 A3009 RMK A01 T02970166  RH  045%=      5-min Rain = 0
KEN1 211814Z 06005KT 30/17 A3009 RMK A01 T02970166  RH  045%=      5-min Rain = 0
KEN1 211815Z 06006KT 30/17 A3009 RMK A01 T02970166  RH  045%=      5-min Rain = 0
KEN1 211816Z 06007KT 30/17 A3009 RMK A01 T02970165  RH  045%=      5-min Rain = 0
KEN1 211817Z 06008KT 30/17 A3009 RMK A01 T02970165  RH  045%=      5-min Rain = 0
KEN1 211818Z 06005KT 30/17 A3009 RMK A01 T02960166  RH  045%=      5-min Rain = 0
KEN1 211819Z 08003KT 30/16 A3009 RMK A01 T02960164  RH  045%=      5-min Rain = 0
KEN1 211820Z 03004KT 30/16 A3009 RMK A01 T02970164  RH  045%=      5-min Rain = 0
KEN1 211821Z 07001KT 30/16 A3009 RMK A01 T02960163  RH  045%=      5-min Rain = 0
KEN1 211822Z 08003KT 30/16 A3009 RMK A01 T02950164  RH  045%=      5-min Rain = 0
KEN1 211823Z 04004KT 30/17 A3009 RMK A01 T02970166  RH  045%=      5-min Rain = 0
KEN1 211824Z 04007KT 30/17 A3009 RMK A01 T03010168  RH  045%=      5-min Rain = 0
KEN1 211825Z 06004G10KT 30/17 A3009 RMK A01 T03020166  RH  044%=      5-min Rain = 0
KEN1 211826Z 06009KT 30/17 A3009 RMK A01 T03030169  RH  044%=      5-min Rain = 0
KEN1 211827Z 06008KT 31/17 A3009 RMK A01 T03050168  RH  044%=      5-min Rain = 0
KEN1 211828Z 06005KT 31/17 A3009 RMK A01 T03050166  RH  043%=      5-min Rain = 0
KEN1 211829Z 03002KT 30/17 A3009 RMK A01 T03020165  RH  044%=      5-min Rain = 0
KEN1 211830Z 08000KT 30/17 A3008 RMK A01 T03010165  RH  044%=      5-min Rain = 0
KEN1 211831Z 11003KT 30/17 A3008 RMK A01 T03030166  RH  044%=      5-min Rain = 0
KEN1 211832Z 08004KT 31/17 A3008 RMK A01 T03050166  RH  043%=      5-min Rain = 0
KEN1 211833Z 07004KT 31/17 A3008 RMK A01 T03070168  RH  043%=      5-min Rain = 0
KEN1 211834Z 01004KT 31/17 A3008 RMK A01 T03090167  RH  043%=      5-min Rain = 0
KEN1 211835Z 02005KT 31/17 A3008 RMK A01 T03080166  RH  043%=      5-min Rain = 0
KEN1 211836Z 02005KT 31/17 A3008 RMK A01 T03050167  RH  043%=      5-min Rain = 0
KEN1 211837Z 01007KT 31/17 A3008 RMK A01 T03060167  RH  043%=      5-min Rain = 0
KEN1 211838Z 04006KT 31/17 A3008 RMK A01 T03100170  RH  043%=      5-min Rain = 0
KEN1 211839Z 04005KT 31/17 A3008 RMK A01 T03130166  RH  041%=      5-min Rain = 0
KEN1 211840Z 06007KT 31/17 A3008 RMK A01 T03110168  RH  042%=      5-min Rain = 0
KEN1 211841Z 05007KT 31/17 A3008 RMK A01 T03130171  RH  043%=      5-min Rain = 0
KEN1 211842Z 01007KT 32/17 A3008 RMK A01 T03170169  RH  041%=      5-min Rain = 0
KEN1 211843Z 03009KT 32/17 A3008 RMK A01 T03170169  RH  041%=      5-min Rain = 0
KEN1 211844Z 03007KT 32/17 A3008 RMK A01 T03150168  RH  041%=      5-min Rain = 0
KEN1 211845Z 02008KT 31/17 A3008 RMK A01 T03120168  RH  042%=      5-min Rain = 0
KEN1 211846Z 03007KT 31/17 A3008 RMK A01 T03120168  RH  042%=      5-min Rain = 0
KEN1 211847Z 04004KT 31/17 A3008 RMK A01 T03120169  RH  042%=      5-min Rain = 0
KEN1 211848Z 01006KT 32/17 A3008 RMK A01 T03160169  RH  041%=      5-min Rain = 0
KEN1 211849Z 04007G12KT 32/17 A3008 RMK A01 T03170169  RH  041%=      5-min Rain = 0
KEN1 211850Z 06008KT 32/17 A3008 RMK A01 T03190169  RH  041%=      5-min Rain = 0
KEN1 211851Z 07004KT 32/17 A3008 RMK A01 T03200168  RH  040%=      5-min Rain = 0
KEN1 211852Z 07004KT 32/17 A3008 RMK A01 T03190168  RH  040%=      5-min Rain = 0
KEN1 211853Z 05004KT 32/17 A3008 RMK A01 T03190169  RH  041%=      5-min Rain = 0
KEN1 211854Z 02010KT 32/17 A3008 RMK A01 T03200168  RH  040%=      5-min Rain = 0
KEN1 211855Z 03010KT 32/17 A3008 RMK A01 T03200167  RH  040%=      5-min Rain = 0
KEN1 211856Z 03007KT 32/17 A3008 RMK A01 T03180167  RH  040%=      5-min Rain = 0
KEN1 211857Z 04007KT 32/17 A3008 RMK A01 T03200167  RH  040%=      5-min Rain = 0
KEN1 211858Z 04003KT 32/17 A3008 RMK A01 T03190165  RH  039%=      5-min Rain = 0
KEN1 211859Z 01006KT 32/16 A3008 RMK A01 T03160164  RH  040%=      5-min Rain = 0
KEN1 211900Z 02007KT 32/16 A3007 RMK A01 T03160164  RH  040%=      5-min Rain = 0
KEN1 211901Z 05009KT 32/17 A3007 RMK A01 T03190166  RH  040%=      5-min Rain = 0
KEN1 211902Z 04011KT 33/17 A3007 RMK A01 T03260165  RH  038%=      5-min Rain = 0
KEN1 211903Z 04011KT 33/16 A3007 RMK A01 T03280164  RH  037%=      5-min Rain = 0
KEN1 211904Z 02009KT 33/16 A3007 RMK A01 T03250162  RH  038%=      5-min Rain = 0
KEN1 211905Z 01008KT 32/16 A3007 RMK A01 T03230162  RH  038%=      5-min Rain = 0
KEN1 211906Z 02005KT 32/16 A3007 RMK A01 T03190162  RH  039%=      5-min Rain = 0
KEN1 211907Z 04005KT 32/16 A3007 RMK A01 T03190160  RH  038%=      5-min Rain = 0
KEN1 211908Z 08006G13KT 32/16 A3007 RMK A01 T03200163  RH  039%=      5-min Rain = 0
KEN1 211909Z 05011G16KT 32/16 A3007 RMK A01 T03230162  RH  038%=      5-min Rain = 0
KEN1 211910Z 04009KT 32/16 A3007 RMK A01 T03240164  RH  038%=      5-min Rain = 0
KEN1 211911Z 05007KT 33/16 A3007 RMK A01 T03250162  RH  038%=      5-min Rain = 0
KEN1 211912Z 04005KT 32/16 A3007 RMK A01 T03210161  RH  038%=      5-min Rain = 0
KEN1 211913Z 05009KT 32/16 A3007 RMK A01 T03220162  RH  038%=      5-min Rain = 0
KEN1 211914Z 05006KT 33/16 A3007 RMK A01 T03250162  RH  038%=      5-min Rain = 0
KEN1 211915Z 07005KT 33/16 A3007 RMK A01 T03250161  RH  037%=      5-min Rain = 0
KEN1 211916Z 03006KT 33/16 A3007 RMK A01 T03260162  RH  037%=      5-min Rain = 0
KEN1 211917Z 05007KT 33/16 A3007 RMK A01 T03250162  RH  038%=      5-min Rain = 0
KEN1 211918Z 05006KT 33/16 A3007 RMK A01 T03250164  RH  038%=      5-min Rain = 0
KEN1 211919Z 03007KT 33/16 A3007 RMK A01 T03270162  RH  037%=      5-min Rain = 0
KEN1 211920Z 09007KT 33/16 A3007 RMK A01 T03270163  RH  037%=      5-min Rain = 0
KEN1 211921Z 09007KT 33/16 A3007 RMK A01 T03280162  RH  037%=      5-min Rain = 0
KEN1 211922Z 09008KT 33/17 A3007 RMK A01 T03310165  RH  037%=      5-min Rain = 0
KEN1 211923Z 09005KT 33/16 A3007 RMK A01 T03340164  RH  036%=      5-min Rain = 0
KEN1 211924Z 05004KT 33/16 A3007 RMK A01 T03340161  RH  035%=      5-min Rain = 0
KEN1 211925Z 01004KT 33/16 A3007 RMK A01 T03310158  RH  035%=      5-min Rain = 0
KEN1 211926Z 35004KT 33/16 A3007 RMK A01 T03280157  RH  036%=      5-min Rain = 0
KEN1 211927Z 03009KT 33/16 A3007 RMK A01 T03260159  RH  037%=      5-min Rain = 0
KEN1 211928Z 03009KT 33/16 A3007 RMK A01 T03270162  RH  037%=      5-min Rain = 0
KEN1 211929Z 04005KT 33/16 A3007 RMK A01 T03270163  RH  037%=      5-min Rain = 0
KEN1 211930Z 05005KT 33/17 A3007 RMK A01 T03300165  RH  037%=      5-min Rain = 0
KEN1 211931Z 07007KT 34/17 A3007 RMK A01 T03350166  RH  037%=      5-min Rain = 0
KEN1 211932Z 07007KT 34/17 A3007 RMK A01 T03360165  RH  036%=      5-min Rain = 0
KEN1 211933Z 07004KT 34/16 A3007 RMK A01 T03360164  RH  036%=      5-min Rain = 0
KEN1 211934Z 04004KT 34/17 A3007 RMK A01 T03360165  RH  036%=      5-min Rain = 0
KEN1 211935Z 06007KT 34/17 A3007 RMK A01 T03360165  RH  036%=      5-min Rain = 0
KEN1 211936Z 07008KT 34/17 A3007 RMK A01 T03380165  RH  036%=      5-min Rain = 0
KEN1 211937Z 08010KT 34/16 A3007 RMK A01 T03400163  RH  035%=      5-min Rain = 0
KEN1 211938Z 09007KT 34/16 A3007 RMK A01 T03380161  RH  035%=      5-min Rain = 0
KEN1 211939Z 11006KT 34/16 A3007 RMK A01 T03350159  RH  035%=      5-min Rain = 0
KEN1 211940Z 06006KT 33/16 A3007 RMK A01 T03300157  RH  035%=      5-min Rain = 0
KEN1 211941Z 06006KT 33/16 A3007 RMK A01 T03290158  RH  036%=      5-min Rain = 0
KEN1 211942Z 08003KT 33/16 A3007 RMK A01 T03270156  RH  036%=      5-min Rain = 0
KEN1 211943Z 06003KT 33/16 A3006 RMK A01 T03260158  RH  036%=      5-min Rain = 0
KEN1 211944Z 04005KT 33/16 A3006 RMK A01 T03280161  RH  037%=      5-min Rain = 0
KEN1 211945Z 07006KT 33/16 A3006 RMK A01 T03330163  RH  036%=      5-min Rain = 0
KEN1 211946Z 07006KT 34/16 A3006 RMK A01 T03350160  RH  035%=      5-min Rain = 0
KEN1 211947Z 07003KT 33/16 A3006 RMK A01 T03330159  RH  035%=      5-min Rain = 0
KEN1 211948Z 05002KT 33/16 A3006 RMK A01 T03330158  RH  035%=      5-min Rain = 0
KEN1 211949Z 04007KT 34/16 A3006 RMK A01 T03350162  RH  035%=      5-min Rain = 0
KEN1 211950Z 03007KT 34/16 A3006 RMK A01 T03380161  RH  035%=      5-min Rain = 0
KEN1 211951Z 04008KT 34/16 A3006 RMK A01 T03380160  RH  034%=      5-min Rain = 0
KEN1 211952Z 03009KT 34/16 A3006 RMK A01 T03380162  RH  035%=      5-min Rain = 0
KEN1 211953Z 05008KT 34/16 A3006 RMK A01 T03400160  RH  034%=      5-min Rain = 0
KEN1 211954Z 05007KT 34/16 A3006 RMK A01 T03410164  RH  035%=      5-min Rain = 0
KEN1 211955Z 04011KT 34/16 A3006 RMK A01 T03410163  RH  035%=      5-min Rain = 0
KEN1 211956Z 06010KT 34/16 A3006 RMK A01 T03410163  RH  035%=      5-min Rain = 0
KEN1 211957Z 08009KT 34/16 A3006 RMK A01 T03390162  RH  035%=      5-min Rain = 0
KEN1 211958Z 07011KT 34/16 A3006 RMK A01 T03390162  RH  035%=      5-min Rain = 0
KEN1 211959Z 05011KT 34/16 A3006 RMK A01 T03400161  RH  034%=      5-min Rain = 0
KEN1 212000Z 06012KT 34/16 A3006 RMK A01 T03420163  RH  034%=      5-min Rain = 0
KEN1 212001Z 07010KT 34/16 A3006 RMK A01 T03420161  RH  034%=      5-min Rain = 0
KEN1 212002Z 07010KT 34/16 A3006 RMK A01 T03410161  RH  034%=      5-min Rain = 0
KEN1 212003Z 06009KT 34/16 A3006 RMK A01 T03390159  RH  034%=      5-min Rain = 0
KEN1 212004Z 06009KT 34/16 A3006 RMK A01 T03360160  RH  035%=      5-min Rain = 0
KEN1 212005Z 11005KT 34/16 A3006 RMK A01 T03360160  RH  035%=      5-min Rain = 0
KEN1 212006Z 11004KT 34/16 A3005 RMK A01 T03360160  RH  035%=      5-min Rain = 0
KEN1 212007Z 07007KT 34/16 A3006 RMK A01 T03370162  RH  035%=      5-min Rain = 0
KEN1 212008Z 07008KT 34/16 A3006 RMK A01 T03400162  RH  035%=      5-min Rain = 0
KEN1 212009Z 06009KT 34/16 A3005 RMK A01 T03380163  RH  035%=      5-min Rain = 0
KEN1 212010Z 05009KT 34/16 A3005 RMK A01 T03430161  RH  034%=      5-min Rain = 0
KEN1 212011Z 07008KT 34/16 A3005 RMK A01 T03440161  RH  034%=      5-min Rain = 0
KEN1 212012Z 08006KT 34/16 A3005 RMK A01 T03410159  RH  034%=      5-min Rain = 0
KEN1 212013Z 09006KT 34/16 A3005 RMK A01 T03390161  RH  034%=      5-min Rain = 0
KEN1 212014Z 09008KT 34/16 A3005 RMK A01 T03410163  RH  035%=      5-min Rain = 0
KEN1 212015Z 09010KT 34/16 A3005 RMK A01 T03430159  RH  033%=      5-min Rain = 0
KEN1 212016Z 08010KT 34/16 A3005 RMK A01 T03430163  RH  034%=      5-min Rain = 0
KEN1 212017Z 09009KT 34/16 A3005 RMK A01 T03420164  RH  035%=      5-min Rain = 0
KEN1 212018Z 08009KT 34/16 A3005 RMK A01 T03430164  RH  034%=      5-min Rain = 0
KEN1 212019Z 10006KT 34/16 A3005 RMK A01 T03430161  RH  034%=      5-min Rain = 0
KEN1 212020Z 11005G10KT 34/16 A3005 RMK A01 T03400161  RH  034%=      5-min Rain = 0
KEN1 212021Z 10008KT 34/16 A3005 RMK A01 T03420160  RH  034%=      5-min Rain = 0
KEN1 212022Z 09008KT 34/16 A3005 RMK A01 T03420159  RH  034%=      5-min Rain = 0
KEN1 212023Z 08007KT 34/16 A3005 RMK A01 T03420160  RH  034%=      5-min Rain = 0
KEN1 212024Z 08012KT 35/16 A3005 RMK A01 T03450162  RH  034%=      5-min Rain = 0
KEN1 212025Z 07009KT 35/16 A3005 RMK A01 T03460160  RH  033%=      5-min Rain = 0
KEN1 212026Z 08007KT 34/16 A3005 RMK A01 T03430158  RH  033%=      5-min Rain = 0
KEN1 212027Z 07004KT 34/16 A3004 RMK A01 T03420158  RH  033%=      5-min Rain = 0
KEN1 212028Z 09007KT 34/16 A3004 RMK A01 T03430158  RH  033%=      5-min Rain = 0
KEN1 212029Z 10010KT 35/16 A3004 RMK A01 T03450157  RH  033%=      5-min Rain = 0
KEN1 212030Z 09006KT 35/16 A3004 RMK A01 T03500155  RH  031%=      5-min Rain = 0
KEN1 212031Z 10008KT 35/15 A3004 RMK A01 T03490153  RH  031%=      5-min Rain = 0
KEN1 212032Z 06011KT 35/16 A3004 RMK A01 T03470156  RH  032%=      5-min Rain = 0
KEN1 212033Z 06009KT 35/16 A3004 RMK A01 T03470157  RH  032%=      5-min Rain = 0
KEN1 212034Z 05009KT 35/16 A3004 RMK A01 T03510156  RH  031%=      5-min Rain = 0
KEN1 212035Z 06010KT 35/16 A3004 RMK A01 T03500156  RH  031%=      5-min Rain = 0
KEN1 212036Z 04011KT 35/16 A3004 RMK A01 T03490158  RH  032%=      5-min Rain = 0
KEN1 212037Z 06011KT 35/16 A3004 RMK A01 T03510157  RH  032%=      5-min Rain = 0
KEN1 212038Z 06010KT 35/15 A3004 RMK A01 T03510153  RH  031%=      5-min Rain = 0
KEN1 212039Z 05008KT 35/15 A3004 RMK A01 T03480151  RH  031%=      5-min Rain = 0
KEN1 212040Z 04007KT 35/15 A3004 RMK A01 T03470153  RH  032%=      5-min Rain = 0
KEN1 212041Z 04005KT 35/15 A3004 RMK A01 T03450153  RH  032%=      5-min Rain = 0
KEN1 212042Z 04004KT 35/16 A3004 RMK A01 T03450156  RH  032%=      5-min Rain = 0
KEN1 212043Z 06006G11KT 35/16 A3004 RMK A01 T03480155  RH  032%=      5-min Rain = 0
KEN1 212044Z 05010KT 35/16 A3004 RMK A01 T03480155  RH  032%=      5-min Rain = 0
KEN1 212045Z 05008KT 35/15 A3004 RMK A01 T03470153  RH  032%=      5-min Rain = 0
KEN1 212046Z 08008KT 35/15 A3004 RMK A01 T03460154  RH  032%=      5-min Rain = 0
KEN1 212047Z 09008KT 35/15 A3004 RMK A01 T03470154  RH  032%=      5-min Rain = 0
KEN1 212048Z 07004KT 35/15 A3004 RMK A01 T03460151  RH  031%=      5-min Rain = 0
KEN1 212049Z 03009KT 35/15 A3004 RMK A01 T03460154  RH  032%=      5-min Rain = 0
KEN1 212050Z 02010KT 35/15 A3004 RMK A01 T03480151  RH  031%=      5-min Rain = 0
KEN1 212051Z 06012KT 35/16 A3004 RMK A01 T03480155  RH  032%=      5-min Rain = 0
KEN1 212052Z 07014KT 35/16 A3004 RMK A01 T03500157  RH  032%=      5-min Rain = 0
KEN1 212053Z 06011KT 35/16 A3004 RMK A01 T03490156  RH  032%=      5-min Rain = 0
KEN1 212054Z 04010KT 35/16 A3004 RMK A01 T03480158  RH  032%=      5-min Rain = 0
KEN1 212055Z 05011KT 35/16 A3004 RMK A01 T03510157  RH  031%=      5-min Rain = 0
KEN1 212056Z 05009KT 35/16 A3004 RMK A01 T03520156  RH  031%=      5-min Rain = 0
KEN1 212057Z 05007KT 35/16 A3004 RMK A01 T03520155  RH  031%=      5-min Rain = 0
KEN1 212058Z 04010KT 35/15 A3004 RMK A01 T03520153  RH  031%=      5-min Rain = 0
KEN1 212059Z 04010G16KT 35/15 A3004 RMK A01 T03500152  RH  031%=      5-min Rain = 0
KEN1 212100Z 04011KT 35/15 A3004 RMK A01 T03500153  RH  031%=      5-min Rain = 0
KEN1 212101Z 04008KT 35/15 A3004 RMK A01 T03510153  RH  031%=      5-min Rain = 0
KEN1 212102Z 05010KT 35/15 A3004 RMK A01 T03520154  RH  031%=      5-min Rain = 0
KEN1 212103Z 07009KT 35/16 A3004 RMK A01 T03520156  RH  031%=      5-min Rain = 0
KEN1 212104Z 08003KT 35/15 A3004 RMK A01 T03520153  RH  031%=      5-min Rain = 0
KEN1 212105Z 07004KT 35/15 A3003 RMK A01 T03520154  RH  031%=      5-min Rain = 0
KEN1 212106Z 06009KT 35/15 A3003 RMK A01 T03510154  RH  031%=      5-min Rain = 0
KEN1 212107Z 03009KT 35/15 A3003 RMK A01 T03510152  RH  031%=      5-min Rain = 0
KEN1 212108Z 02008KT 35/15 A3003 RMK A01 T03500151  RH  031%=      5-min Rain = 0
KEN1 212109Z 05009KT 35/15 A3003 RMK A01 T03500152  RH  031%=      5-min Rain = 0
KEN1 212110Z 05010KT 35/16 A3003 RMK A01 T03530155  RH  031%=      5-min Rain = 0
KEN1 212111Z 05009KT 35/15 A3003 RMK A01 T03540154  RH  030%=      5-min Rain = 0
KEN1 212112Z 05009KT 35/15 A3003 RMK A01 T03540154  RH  030%=      5-min Rain = 0
KEN1 212113Z 05007KT 35/15 A3003 RMK A01 T03540153  RH  030%=      5-min Rain = 0
KEN1 212114Z 05008KT 35/15 A3003 RMK A01 T03540153  RH  030%=      5-min Rain = 0
KEN1 212115Z 05011KT 35/15 A3003 RMK A01 T03540153  RH  030%=      5-min Rain = 0
KEN1 212116Z 05010KT 36/15 A3003 RMK A01 T03550151  RH  030%=      5-min Rain = 0
KEN1 212117Z 05005KT 35/15 A3003 RMK A01 T03530148  RH  029%=      5-min Rain = 0
KEN1 212118Z 06007KT 35/15 A3003 RMK A01 T03500149  RH  030%=      5-min Rain = 0
KEN1 212119Z 06007KT 35/15 A3003 RMK A01 T03500149  RH  030%=      5-min Rain = 0
KEN1 212120Z 04009KT 35/15 A3003 RMK A01 T03500150  RH  030%=      5-min Rain = 0
KEN1 212121Z 03011G17KT 35/15 A3003 RMK A01 T03520152  RH  030%=      5-min Rain = 0
KEN1 212122Z 06012KT 36/15 A3003 RMK A01 T03600153  RH  029%=      5-min Rain = 0
KEN1 212123Z 05011KT 36/15 A3003 RMK A01 T03610148  RH  028%=      5-min Rain = 0
KEN1 212124Z 06011KT 36/15 A3003 RMK A01 T03570148  RH  029%=      5-min Rain = 0
KEN1 212125Z 07011KT 36/15 A3003 RMK A01 T03560150  RH  029%=      5-min Rain = 0
KEN1 212126Z 07010KT 35/15 A3003 RMK A01 T03540151  RH  030%=      5-min Rain = 0
KEN1 212127Z 07009KT 36/15 A3003 RMK A01 T03550148  RH  029%=      5-min Rain = 0
KEN1 212128Z 06009KT 35/15 A3003 RMK A01 T03540148  RH  029%=      5-min Rain = 0
KEN1 212129Z 06008KT 35/15 A3003 RMK A01 T03540148  RH  029%=      5-min Rain = 0
KEN1 212130Z 04006KT 35/15 A3003 RMK A01 T03530147  RH  029%=      5-min Rain = 0
KEN1 212131Z 02005KT 35/15 A3003 RMK A01 T03510147  RH  030%=      5-min Rain = 0
KEN1 212132Z 34003KT 35/14 A3003 RMK A01 T03490144  RH  029%=      5-min Rain = 0
KEN1 212133Z 03007KT 35/15 A3003 RMK A01 T03490146  RH  030%=      5-min Rain = 0
KEN1 212134Z 04007KT 35/15 A3003 RMK A01 T03520145  RH  029%=      5-min Rain = 0
KEN1 212135Z 02008KT 35/15 A3003 RMK A01 T03540147  RH  029%=      5-min Rain = 0
KEN1 212136Z 06011KT 35/15 A3003 RMK A01 T03540148  RH  029%=      5-min Rain = 0
KEN1 212137Z 05010KT 36/15 A3003 RMK A01 T03570151  RH  029%=      5-min Rain = 0
KEN1 212138Z 04008KT 36/15 A3003 RMK A01 T03600148  RH  028%=      5-min Rain = 0
KEN1 212139Z 05007KT 36/15 A3003 RMK A01 T03570148  RH  029%=      5-min Rain = 0
KEN1 212140Z 07008KT 36/15 A3003 RMK A01 T03560151  RH  029%=      5-min Rain = 0
KEN1 212141Z 09008KT 36/15 A3003 RMK A01 T03610148  RH  028%=      5-min Rain = 0
KEN1 212142Z 09008G13KT 36/15 A3003 RMK A01 T03610145  RH  028%=      5-min Rain = 0
KEN1 212143Z 08011KT 36/14 A3003 RMK A01 T03590144  RH  028%=      5-min Rain = 0
KEN1 212144Z 10008KT 36/14 A3003 RMK A01 T03570143  RH  028%=      5-min Rain = 0
KEN1 212145Z 10007KT 36/14 A3003 RMK A01 T03590144  RH  028%=      5-min Rain = 0
KEN1 212146Z 10006KT 36/14 A3003 RMK A01 T03610141  RH  027%=      5-min Rain = 0
KEN1 212147Z 09006KT 36/14 A3003 RMK A01 T03610141  RH  027%=      5-min Rain = 0
KEN1 212148Z 06006KT 36/14 A3003 RMK A01 T03590139  RH  027%=      5-min Rain = 0
KEN1 212149Z 06005KT 36/14 A3003 RMK A01 T03580141  RH  027%=      5-min Rain = 0
KEN1 212150Z 07003KT 36/14 A3003 RMK A01 T03580144  RH  028%=      5-min Rain = 0
KEN1 212151Z 07005KT 36/14 A3003 RMK A01 T03610143  RH  027%=      5-min Rain = 0
KEN1 212152Z 06005KT 36/14 A3003 RMK A01 T03610142  RH  027%=      5-min Rain = 0
KEN1 212153Z 08011KT 36/14 A3003 RMK A01 T03610143  RH  027%=      5-min Rain = 0
KEN1 212154Z 07011KT 36/14 A3003 RMK A01 T03600144  RH  028%=      5-min Rain = 0
KEN1 212155Z 07014KT 36/14 A3003 RMK A01 T03630144  RH  027%=      5-min Rain = 0
KEN1 212156Z 08009KT 36/14 A3003 RMK A01 T03600139  RH  027%=      5-min Rain = 0
KEN1 212157Z 06009KT 36/14 A3003 RMK A01 T03580142  RH  028%=      5-min Rain = 0
KEN1 212158Z 08008KT 36/14 A3003 RMK A01 T03590141  RH  027%=      5-min Rain = 0
KEN1 212159Z 07010KT 36/14 A3003 RMK A01 T03590140  RH  027%=      5-min Rain = 0
KEN1 212200Z 07009KT 36/14 A3003 RMK A01 T03620142  RH  027%=      5-min Rain = 0
KEN1 212201Z 08009KT 36/14 A3003 RMK A01 T03640140  RH  026%=      5-min Rain = 0
KEN1 212202Z 07008KT 36/14 A3003 RMK A01 T03620138  RH  026%=      5-min Rain = 0
KEN1 212203Z 09006KT 36/14 A3003 RMK A01 T03590136  RH  026%=      5-min Rain = 0
KEN1 212204Z 07010KT 36/14 A3003 RMK A01 T03590141  RH  027%=      5-min Rain = 0
KEN1 212205Z 06009KT 36/14 A3003 RMK A01 T03610139  RH  026%=      5-min Rain = 0
KEN1 212206Z 07007KT 36/14 A3003 RMK A01 T03610139  RH  027%=      5-min Rain = 0
KEN1 212207Z 09006KT 36/14 A3003 RMK A01 T03600137  RH  026%=      5-min Rain = 0
KEN1 212208Z 06006G11KT 36/14 A3003 RMK A01 T03580138  RH  027%=      5-min Rain = 0
KEN1 212209Z 09006G11KT 36/13 A3003 RMK A01 T03580134  RH  026%=      5-min Rain = 0
KEN1 212210Z 11012KT 36/13 A3003 RMK A01 T03580131  RH  026%=      5-min Rain = 0
KEN1 212211Z 11011KT 36/13 A3003 RMK A01 T03610129  RH  025%=      5-min Rain = 0
KEN1 212212Z 11010KT 36/13 A3003 RMK A01 T03620129  RH  025%=      5-min Rain = 0
KEN1 212213Z 10012KT 36/13 A3003 RMK A01 T03600130  RH  025%=      5-min Rain = 0
KEN1 212214Z 12009KT 36/13 A3003 RMK A01 T03600129  RH  025%=      5-min Rain = 0
KEN1 212215Z 13012KT 36/13 A3003 RMK A01 T03590130  RH  025%=      5-min Rain = 0
KEN1 212216Z 13010KT 36/13 A3003 RMK A01 T03600129  RH  025%=      5-min Rain = 0
KEN1 212217Z 11011KT 36/13 A3003 RMK A01 T03600130  RH  025%=      5-min Rain = 0
KEN1 212218Z 10008KT 36/13 A3003 RMK A01 T03620131  RH  025%=      5-min Rain = 0
KEN1 212219Z 14007KT 36/13 A3003 RMK A01 T03610130  RH  025%=      5-min Rain = 0
KEN1 212220Z 11008KT 36/13 A3003 RMK A01 T03600130  RH  025%=      5-min Rain = 0
KEN1 212221Z 10007KT 36/13 A3003 RMK A01 T03620130  RH  025%=      5-min Rain = 0
KEN1 212222Z 09008KT 36/13 A3003 RMK A01 T03620130  RH  025%=      5-min Rain = 0
KEN1 212223Z 10009G14KT 36/13 A3003 RMK A01 T03610129  RH  025%=      5-min Rain = 0
KEN1 212224Z 10009KT 36/13 A3003 RMK A01 T03600129  RH  025%=      5-min Rain = 0
KEN1 212225Z 09009KT 36/13 A3003 RMK A01 T03600129  RH  025%=      5-min Rain = 0
KEN1 212226Z 08008KT 36/13 A3003 RMK A01 T03580130  RH  025%=      5-min Rain = 0
KEN1 212227Z 11012KT 36/13 A3003 RMK A01 T03590130  RH  025%=      5-min Rain = 0
KEN1 212228Z 12012KT 36/13 A3003 RMK A01 T03600125  RH  024%=      5-min Rain = 0
KEN1 212229Z 13011KT 36/13 A3003 RMK A01 T03600127  RH  025%=      5-min Rain = 0
KEN1 212230Z 13012KT 36/13 A3003 RMK A01 T03620126  RH  024%=      5-min Rain = 0
KEN1 212231Z 13010KT 36/13 A3003 RMK A01 T03630126  RH  024%=      5-min Rain = 0
KEN1 212232Z 09009KT 36/13 A3003 RMK A01 T03620127  RH  024%=      5-min Rain = 0
KEN1 212233Z 09007KT 36/13 A3003 RMK A01 T03590127  RH  025%=      5-min Rain = 0
KEN1 212234Z 09007KT 36/13 A3003 RMK A01 T03560126  RH  025%=      5-min Rain = 0
KEN1 212235Z 07007KT 36/13 A3003 RMK A01 T03550126  RH  025%=      5-min Rain = 0
KEN1 212236Z 06005KT 35/13 A3003 RMK A01 T03540127  RH  026%=      5-min Rain = 0
KEN1 212237Z 08004KT 35/13 A3003 RMK A01 T03540129  RH  026%=      5-min Rain = 0
KEN1 212238Z 12003KT 36/13 A3003 RMK A01 T03570128  RH  025%=      5-min Rain = 0
KEN1 212239Z 11008G15KT 36/13 A3003 RMK A01 T03580128  RH  025%=      5-min Rain = 0
KEN1 212240Z 12012KT 36/13 A3003 RMK A01 T03610126  RH  024%=      5-min Rain = 0
KEN1 212241Z 13010KT 36/12 A3003 RMK A01 T03620123  RH  024%=      5-min Rain = 0
KEN1 212242Z 13008KT 36/12 A3003 RMK A01 T03610122  RH  024%=      5-min Rain = 0
KEN1 212243Z 13008KT 36/12 A3003 RMK A01 T03620123  RH  024%=      5-min Rain = 0
KEN1 212244Z 13011KT 36/13 A3003 RMK A01 T03610125  RH  024%=      5-min Rain = 0
KEN1 212245Z 13009KT 36/12 A3003 RMK A01 T03590124  RH  024%=      5-min Rain = 0
KEN1 212246Z 12009KT 36/13 A3003 RMK A01 T03580125  RH  025%=      5-min Rain = 0
KEN1 212247Z 09008KT 36/13 A3003 RMK A01 T03610128  RH  025%=      5-min Rain = 0
KEN1 212248Z 08008KT 36/13 A3003 RMK A01 T03620130  RH  025%=      5-min Rain = 0
KEN1 212249Z 07008KT 36/13 A3003 RMK A01 T03610132  RH  025%=      5-min Rain = 0
KEN1 212250Z 09006KT 36/13 A3003 RMK A01 T03600129  RH  025%=      5-min Rain = 0
KEN1 212251Z 08009G16KT 36/13 A3003 RMK A01 T03570129  RH  025%=      5-min Rain = 0
KEN1 212252Z 09012KT 36/13 A3003 RMK A01 T03570130  RH  026%=      5-min Rain = 0
KEN1 212253Z 10012KT 36/13 A3003 RMK A01 T03570131  RH  026%=      5-min Rain = 0
KEN1 212254Z 10011KT 36/13 A3003 RMK A01 T03580129  RH  025%=      5-min Rain = 0
KEN1 212255Z 11010KT 36/13 A3003 RMK A01 T03570129  RH  025%=      5-min Rain = 0
KEN1 212256Z 10010KT 36/13 A3003 RMK A01 T03590129  RH  025%=      5-min Rain = 0
KEN1 212257Z 09007KT 36/13 A3003 RMK A01 T03610130  RH  025%=      5-min Rain = 0
KEN1 212258Z 09010KT 36/13 A3003 RMK A01 T03600132  RH  026%=      5-min Rain = 0
KEN1 212259Z 09009KT 36/13 A3003 RMK A01 T03600132  RH  026%=      5-min Rain = 0
KEN1 212300Z 12005KT 36/13 A3003 RMK A01 T03590128  RH  025%=      5-min Rain = 0
KEN1 212301Z 14005KT 36/13 A3003 RMK A01 T03560126  RH  025%=      5-min Rain = 0
KEN1 212302Z 13008KT 36/13 A3003 RMK A01 T03560127  RH  025%=      5-min Rain = 0
KEN1 212303Z 13008KT 36/13 A3003 RMK A01 T03570127  RH  025%=      5-min Rain = 0
KEN1 212304Z 12008KT 36/13 A3003 RMK A01 T03580127  RH  025%=      5-min Rain = 0
KEN1 212305Z 11009KT 36/13 A3003 RMK A01 T03600128  RH  025%=      5-min Rain = 0
KEN1 212306Z 11007KT 36/13 A3003 RMK A01 T03600128  RH  025%=      5-min Rain = 0
KEN1 212307Z 11008KT 36/13 A3003 RMK A01 T03580128  RH  025%=      5-min Rain = 0
KEN1 212308Z 13007KT 36/13 A3003 RMK A01 T03570128  RH  025%=      5-min Rain = 0
KEN1 212309Z 14008KT 36/13 A3003 RMK A01 T03570126  RH  025%=      5-min Rain = 0
KEN1 212310Z 12006KT 36/13 A3003 RMK A01 T03570125  RH  025%=      5-min Rain = 0
KEN1 212311Z 12006G11KT 36/13 A3003 RMK A01 T03560128  RH  025%=      5-min Rain = 0
KEN1 212312Z 12008KT 36/13 A3003 RMK A01 T03580127  RH  025%=      5-min Rain = 0
KEN1 212313Z 12008KT 36/13 A3003 RMK A01 T03590126  RH  025%=      5-min Rain = 0
KEN1 212314Z 10008KT 36/13 A3003 RMK A01 T03610129  RH  025%=      5-min Rain = 0
KEN1 212315Z 10010KT 36/13 A3003 RMK A01 T03630129  RH  025%=      5-min Rain = 0
KEN1 212316Z 11008KT 36/13 A3003 RMK A01 T03620125  RH  024%=      5-min Rain = 0
KEN1 212317Z 14009KT 36/12 A3003 RMK A01 T03600124  RH  024%=      5-min Rain = 0
KEN1 212318Z 13011KT 36/13 A3003 RMK A01 T03600125  RH  024%=      5-min Rain = 0
KEN1 212319Z 15009KT 36/12 A3003 RMK A01 T03610123  RH  024%=      5-min Rain = 0
KEN1 212320Z 14009KT 36/12 A3003 RMK A01 T03600124  RH  024%=      5-min Rain = 0
KEN1 212321Z 14008KT 36/13 A3003 RMK A01 T03600125  RH  024%=      5-min Rain = 0
KEN1 212322Z 15006KT 36/12 A3003 RMK A01 T03580124  RH  025%=      5-min Rain = 0
KEN1 212323Z 12006KT 36/13 A3003 RMK A01 T03570125  RH  025%=      5-min Rain = 0
KEN1 212324Z 13008KT 36/13 A3003 RMK A01 T03600127  RH  025%=      5-min Rain = 0
KEN1 212325Z 12011KT 36/13 A3003 RMK A01 T03610126  RH  024%=      5-min Rain = 0
KEN1 212326Z 12010KT 36/13 A3003 RMK A01 T03590126  RH  025%=      5-min Rain = 0
KEN1 212327Z 13010KT 36/13 A3002 RMK A01 T03590126  RH  025%=      5-min Rain = 0
KEN1 212328Z 10011KT 36/13 A3003 RMK A01 T03610126  RH  024%=      5-min Rain = 0
KEN1 212329Z 10010KT 36/13 A3003 RMK A01 T03610128  RH  025%=      5-min Rain = 0
KEN1 212330Z 11010KT 36/13 A3003 RMK A01 T03600128  RH  025%=      5-min Rain = 0
KEN1 212331Z 11007KT 36/12 A3003 RMK A01 T03570123  RH  024%=      5-min Rain = 0
KEN1 212332Z 12004KT 35/12 A3002 RMK A01 T03530123  RH  025%=      5-min Rain = 0
KEN1 212333Z 10004KT 35/12 A3002 RMK A01 T03530123  RH  025%=      5-min Rain = 0
KEN1 212334Z 08007KT 35/13 A3002 RMK A01 T03530126  RH  025%=      5-min Rain = 0
KEN1 212335Z 09007KT 36/13 A3002 RMK A01 T03550126  RH  025%=      5-min Rain = 0
KEN1 212336Z 08006KT 36/12 A3002 RMK A01 T03560124  RH  025%=      5-min Rain = 0
KEN1 212337Z 08004KT 35/12 A3002 RMK A01 T03540124  RH  025%=      5-min Rain = 0
KEN1 212338Z 11004KT 35/13 A3002 RMK A01 T03540125  RH  025%=      5-min Rain = 0
KEN1 212339Z 13006KT 36/12 A3002 RMK A01 T03550124  RH  025%=      5-min Rain = 0
KEN1 212340Z 12005KT 36/12 A3002 RMK A01 T03560123  RH  025%=      5-min Rain = 0
KEN1 212341Z 11004KT 36/12 A3002 RMK A01 T03560123  RH  025%=      5-min Rain = 0
KEN1 212342Z 12006KT 36/12 A3002 RMK A01 T03550124  RH  025%=      5-min Rain = 0
KEN1 212343Z 10008KT 36/13 A3002 RMK A01 T03550125  RH  025%=      5-min Rain = 0
KEN1 212344Z 13009KT 36/13 A3002 RMK A01 T03550125  RH  025%=      5-min Rain = 0
KEN1 212345Z 10013KT 36/12 A3002 RMK A01 T03560124  RH  025%=      5-min Rain = 0
KEN1 212346Z 11013KT 36/12 A3001 RMK A01 T03570124  RH  025%=      5-min Rain = 0
KEN1 212347Z 11011KT 36/12 A3002 RMK A01 T03580123  RH  024%=      5-min Rain = 0
KEN1 212348Z 10008KT 36/12 A3002 RMK A01 T03570124  RH  025%=      5-min Rain = 0
KEN1 212349Z 10008KT 36/12 A3002 RMK A01 T03550124  RH  025%=      5-min Rain = 0
KEN1 212350Z 09006KT 36/13 A3002 RMK A01 T03560125  RH  025%=      5-min Rain = 0
KEN1 212351Z 09005KT 36/13 A3002 RMK A01 T03550125  RH  025%=      5-min Rain = 0
KEN1 212352Z 11005KT 36/13 A3002 RMK A01 T03560125  RH  025%=      5-min Rain = 0
KEN1 212353Z 13007KT 36/12 A3002 RMK A01 T03570124  RH  025%=      5-min Rain = 0
KEN1 212354Z 12009KT 36/12 A3002 RMK A01 T03580123  RH  024%=      5-min Rain = 0
KEN1 212355Z 12009KT 36/12 A3002 RMK A01 T03580122  RH  024%=      5-min Rain = 0
KEN1 212356Z 11007KT 36/12 A3002 RMK A01 T03560122  RH  024%=      5-min Rain = 0
KEN1 212357Z 12007KT 36/12 A3002 RMK A01 T03550123  RH  025%=      5-min Rain = 0
KEN1 212358Z 14008KT 36/12 A3002 RMK A01 T03550121  RH  024%=      5-min Rain = 0
KEN1 212359Z 14006KT 36/12 A3002 RMK A01 T03550121  RH  024%=      5-min Rain = 0
KEN1 220000Z 11008KT 36/12 A3002 RMK A01 T03560122  RH  024%=      5-min Rain = 0
KEN1 220001Z 10006KT 36/12 A3002 RMK A01 T03570122  RH  024%=      5-min Rain = 0
KEN1 220002Z 10007KT 36/12 A3002 RMK A01 T03560124  RH  025%=      5-min Rain = 0
KEN1 220003Z 10004KT 35/12 A3002 RMK A01 T03530124  RH  025%=      5-min Rain = 0
KEN1 220004Z 10003KT 35/13 A3002 RMK A01 T03510125  RH  026%=      5-min Rain = 0
KEN1 220005Z 13003KT 35/12 A3002 RMK A01 T03500123  RH  025%=      5-min Rain = 0
KEN1 220006Z 12002KT 35/12 A3002 RMK A01 T03490123  RH  026%=      5-min Rain = 0
KEN1 220007Z 13002KT 35/12 A3002 RMK A01 T03470122  RH  026%=      5-min Rain = 0
KEN1 220008Z 13003KT 35/12 A3002 RMK A01 T03470122  RH  026%=      5-min Rain = 0
KEN1 220009Z 10002KT 35/13 A3003 RMK A01 T03460125  RH  026%=      5-min Rain = 0
KEN1 220010Z 07003KT 35/13 A3003 RMK A01 T03450127  RH  027%=      5-min Rain = 0
KEN1 220011Z 09005KT 34/13 A3003 RMK A01 T03430126  RH  027%=      5-min Rain = 0
KEN1 220012Z 08004KT 34/12 A3003 RMK A01 T03410123  RH  027%=      5-min Rain = 0
KEN1 220013Z 09004KT 34/12 A3003 RMK A01 T03400124  RH  027%=      5-min Rain = 0
KEN1 220014Z 08004KT 34/12 A3003 RMK A01 T03390123  RH  027%=      5-min Rain = 0
KEN1 220015Z 09003KT 34/12 A3003 RMK A01 T03380124  RH  027%=      5-min Rain = 0
KEN1 220016Z 10004KT 34/12 A3003 RMK A01 T03370124  RH  027%=      5-min Rain = 0
KEN1 220017Z 09004KT 34/12 A3003 RMK A01 T03370124  RH  028%=      5-min Rain = 0
KEN1 220018Z 07006KT 34/13 A3004 RMK A01 T03360126  RH  028%=      5-min Rain = 0
KEN1 220019Z 07004KT 34/12 A3004 RMK A01 T03350124  RH  028%=      5-min Rain = 0
KEN1 220020Z 08003KT 34/12 A3004 RMK A01 T03360124  RH  028%=      5-min Rain = 0
KEN1 220021Z 09003KT 34/12 A3004 RMK A01 T03370124  RH  027%=      5-min Rain = 0
KEN1 220022Z 07003KT 34/13 A3004 RMK A01 T03380125  RH  027%=      5-min Rain = 0
KEN1 220023Z 05003KT 34/13 A3004 RMK A01 T03380129  RH  028%=      5-min Rain = 0
KEN1 220024Z 06003KT 34/13 A3004 RMK A01 T03360128  RH  028%=      5-min Rain = 0
KEN1 220025Z 06003KT 34/13 A3003 RMK A01 T03350128  RH  029%=      5-min Rain = 0
KEN1 220026Z 06003KT 34/13 A3003 RMK A01 T03350128  RH  029%=      5-min Rain = 0
KEN1 220027Z 06003KT 33/13 A3003 RMK A01 T03340132  RH  029%=      5-min Rain = 0
KEN1 220028Z 05003KT 33/14 A3003 RMK A01 T03330135  RH  030%=      5-min Rain = 0
KEN1 220029Z 06003KT 33/13 A3004 RMK A01 T03320134  RH  030%=      5-min Rain = 0
KEN1 220030Z 06004KT 33/13 A3004 RMK A01 T03310134  RH  030%=      5-min Rain = 0
KEN1 220031Z 07005KT 33/14 A3004 RMK A01 T03310135  RH  031%=      5-min Rain = 0
KEN1 220032Z 06005KT 33/14 A3004 RMK A01 T03300135  RH  031%=      5-min Rain = 0
KEN1 220033Z 06005KT 33/14 A3004 RMK A01 T03290135  RH  031%=      5-min Rain = 0
KEN1 220034Z 06005KT 33/14 A3004 RMK A01 T03280135  RH  031%=      5-min Rain = 0
KEN1 220035Z 06005KT 33/14 A3004 RMK A01 T03280136  RH  031%=      5-min Rain = 0
KEN1 220036Z 06006KT 33/14 A3004 RMK A01 T03260137  RH  032%=      5-min Rain = 0
KEN1 220037Z 06006KT 33/14 A3004 RMK A01 T03260136  RH  032%=      5-min Rain = 0
KEN1 220038Z 06006KT 33/14 A3004 RMK A01 T03250135  RH  032%=      5-min Rain = 0
KEN1 220039Z 06006KT 33/13 A3004 RMK A01 T03260134  RH  031%=      5-min Rain = 0
KEN1 220040Z 05006KT 33/13 A3004 RMK A01 T03250132  RH  031%=      5-min Rain = 0
KEN1 220041Z 05006KT 33/13 A3004 RMK A01 T03260131  RH  031%=      5-min Rain = 0
KEN1 220042Z 05007KT 33/13 A3004 RMK A01 T03270129  RH  030%=      5-min Rain = 0
KEN1 220043Z 05006KT 33/13 A3004 RMK A01 T03280130  RH  030%=      5-min Rain = 0
KEN1 220044Z 05006KT 33/13 A3004 RMK A01 T03280131  RH  030%=      5-min Rain = 0
KEN1 220045Z 05005KT 33/13 A3004 RMK A01 T03280133  RH  031%=      5-min Rain = 0
KEN1 220046Z 06005KT 33/13 A3004 RMK A01 T03270134  RH  031%=      5-min Rain = 0
KEN1 220047Z 05005KT 33/14 A3004 RMK A01 T03260135  RH  031%=      5-min Rain = 0
KEN1 220048Z 05005KT 33/14 A3004 RMK A01 T03250136  RH  032%=      5-min Rain = 0
KEN1 220049Z 05005KT 32/14 A3004 RMK A01 T03240136  RH  032%=      5-min Rain = 0
KEN1 220050Z 05006KT 32/14 A3005 RMK A01 T03240136  RH  032%=      5-min Rain = 0
KEN1 220051Z 05006KT 32/14 A3005 RMK A01 T03230136  RH  032%=      5-min Rain = 0
KEN1 220052Z 05006KT 32/13 A3005 RMK A01 T03230134  RH  032%=      5-min Rain = 0
KEN1 220053Z 05006KT 32/13 A3005 RMK A01 T03230133  RH  031%=      5-min Rain = 0
KEN1 220054Z 05005KT 32/13 A3005 RMK A01 T03230133  RH  031%=      5-min Rain = 0
KEN1 220055Z 04006KT 32/13 A3005 RMK A01 T03240133  RH  032%=      5-min Rain = 0
KEN1 220056Z 03005KT 32/13 A3005 RMK A01 T03230133  RH  031%=      5-min Rain = 0
KEN1 220057Z 02005KT 32/13 A3006 RMK A01 T03240134  RH  032%=      5-min Rain = 0
KEN1 220058Z 35005KT 32/13 A3006 RMK A01 T03240133  RH  031%=      5-min Rain = 0
KEN1 220059Z 33009KT 33/13 A3007 RMK A01 T03260133  RH  031%=      5-min Rain = 0
KEN1 220100Z 32020G28KT 33/13 A3008 RMK A01 T03290132  RH  030%=      5-min Rain = 0
KEN1 220101Z 32022KT 32/14 A3009 RMK A01 T03170137  RH  034%=      5-min Rain = 0
KEN1 220102Z 32023KT 30/14 A3008 RMK A01 T02950136  RH  038%=      5-min Rain = 0
KEN1 220103Z 32016KT 29/14 A3008 RMK A01 T02850137  RH  040%=      5-min Rain = 0
KEN1 220104Z 32016G21KT 28/14 A3008 RMK A01 T02800138  RH  042%=      5-min Rain = 0
KEN1 220105Z 33023G31KT 28/14 A3007 RMK A01 T02780137  RH  042%=      5-min Rain = 0
KEN1 220106Z 31021G27KT 28/14 A3007 RMK A01 T02770136  RH  042%=      5-min Rain = 0
KEN1 220107Z 31029G37KT 28/14 A3006 RMK A01 T02780137  RH  042%=      5-min Rain = 0
KEN1 220108Z 31035G41KT 28/14 A3006 RMK A01 T02780137  RH  042%=      5-min Rain = 0
KEN1 220109Z 32037G42KT 28/14 A3007 RMK A01 T02770137  RH  042%=      5-min Rain = 0
KEN1 220110Z 32031G36KT 28/14 A3008 RMK A01 T02760138  RH  043%=      5-min Rain = 0
KEN1 220111Z 32026G32KT 28/14 A3009 RMK A01 T02750138  RH  043%=      5-min Rain = 0
KEN1 220112Z 32030G37KT 27/14 A3009 RMK A01 T02730139  RH  043%=      5-min Rain = 0
KEN1 220113Z 32030G37KT 27/14 A3009 RMK A01 T02710138  RH  044%=      5-min Rain = 0
KEN1 220114Z 32028G33KT 27/14 A3009 RMK A01 T02690139  RH  045%=      5-min Rain = 0
KEN1 220115Z 32029KT 27/14 A3008 RMK A01 T02680139  RH  045%=      5-min Rain = 0
KEN1 220116Z 32029G37KT 27/14 A3008 RMK A01 T02670138  RH  045%=      5-min Rain = 0
KEN1 220117Z 32030G37KT 27/14 A3008 RMK A01 T02670136  RH  045%=      5-min Rain = 0
KEN1 220118Z 32023KT 27/14 A3008 RMK A01 T02670136  RH  044%=      5-min Rain = 0
KEN1 220119Z 32021KT 27/14 A3008 RMK A01 T02680135  RH  044%=      5-min Rain = 0
KEN1 220120Z 32024G29KT 27/13 A3008 RMK A01 T02680134  RH  044%=      5-min Rain = 0
KEN1 220121Z 33025G30KT 27/13 A3008 RMK A01 T02690134  RH  043%=      5-min Rain = 0
KEN1 220122Z 32024G30KT 27/13 A3008 RMK A01 T02690133  RH  043%=      5-min Rain = 0
KEN1 220123Z 32023KT 27/13 A3008 RMK A01 T02690133  RH  043%=      5-min Rain = 0
KEN1 220124Z 32025G33KT 27/13 A3008 RMK A01 T02690133  RH  043%=      5-min Rain = 0
KEN1 220125Z 32029G37KT 27/13 A3009 RMK A01 T02680132  RH  043%=      5-min Rain = 0
KEN1 220126Z 32024KT 27/13 A3009 RMK A01 T02690132  RH  043%=      5-min Rain = 0
KEN1 220127Z 32026G34KT 27/13 A3009 RMK A01 T02690132  RH  043%=      5-min Rain = 0
KEN1 220128Z 32027G32KT 27/13 A3008 RMK A01 T02680133  RH  043%=      5-min Rain = 0
KEN1 220129Z 32024KT 27/13 A3008 RMK A01 T02670134  RH  044%=      5-min Rain = 0
KEN1 220130Z 32022KT 27/13 A3008 RMK A01 T02660134  RH  044%=      5-min Rain = 0
KEN1 220131Z 31026G34KT 27/14 A3008 RMK A01 T02650135  RH  045%=      5-min Rain = 0
KEN1 220132Z 32024KT 26/14 A3008 RMK A01 T02640135  RH  045%=      5-min Rain = 0
KEN1 220133Z 32020KT 26/14 A3008 RMK A01 T02620135  RH  046%=      5-min Rain = 0
KEN1 220134Z 32025KT 26/14 A3008 RMK A01 T02610137  RH  046%=      5-min Rain = 0
KEN1 220135Z 31026G33KT 26/14 A3008 RMK A01 T02600138  RH  047%=      5-min Rain = 0
KEN1 220136Z 32025G30KT 26/14 A3008 RMK A01 T02580138  RH  047%=      5-min Rain = 0
KEN1 220137Z 32025G33KT 26/14 A3008 RMK A01 T02570139  RH  048%=      5-min Rain = 0
KEN1 220138Z 32025G30KT 26/14 A3008 RMK A01 T02570140  RH  048%=      5-min Rain = 0
KEN1 220139Z 32023KT 26/14 A3008 RMK A01 T02570140  RH  048%=      5-min Rain = 0
KEN1 220140Z 32027G32KT 26/14 A3008 RMK A01 T02570141  RH  049%=      5-min Rain = 0
KEN1 220141Z 31023KT 26/14 A3008 RMK A01 T02570141  RH  049%=      5-min Rain = 0
KEN1 220142Z 31025KT 26/14 A3009 RMK A01 T02580141  RH  049%=      5-min Rain = 0
KEN1 220143Z 32026KT 26/14 A3009 RMK A01 T02580142  RH  049%=      5-min Rain = 0
KEN1 220144Z 32024G29KT 26/14 A3009 RMK A01 T02580143  RH  049%=      5-min Rain = 0
KEN1 220145Z 32020G25KT 26/14 A3009 RMK A01 T02580144  RH  049%=      5-min Rain = 0
KEN1 220146Z 32022G27KT 26/14 A3009 RMK A01 T02570144  RH  050%=      5-min Rain = 0
KEN1 220147Z 32020G28KT 26/15 A3009 RMK A01 T02570145  RH  050%=      5-min Rain = 0
KEN1 220148Z 32018KT 26/15 A3009 RMK A01 T02570145  RH  050%=      5-min Rain = 0
KEN1 220149Z 31016KT 26/15 A3009 RMK A01 T02570146  RH  050%=      5-min Rain = 0
KEN1 220150Z 31015KT 26/15 A3009 RMK A01 T02570147  RH  051%=      5-min Rain = 0
KEN1 220151Z 31016KT 26/15 A3009 RMK A01 T02570147  RH  051%=      5-min Rain = 0
KEN1 220152Z 31019G24KT 26/15 A3009 RMK A01 T02570148  RH  051%=      5-min Rain = 0
KEN1 220153Z 31021KT 26/15 A3009 RMK A01 T02570148  RH  051%=      5-min Rain = 0
KEN1 220154Z 32023KT 26/15 A3009 RMK A01 T02580148  RH  051%=      5-min Rain = 0
KEN1 220155Z 32022G27KT 26/15 A3009 RMK A01 T02580148  RH  051%=      5-min Rain = 0
KEN1 220156Z 32025G31KT 26/15 A3009 RMK A01 T02580150  RH  051%=      5-min Rain = 0
KEN1 220157Z 32021KT 26/15 A3009 RMK A01 T02570149  RH  051%=      5-min Rain = 0
KEN1 220158Z 31025G30KT 26/15 A3009 RMK A01 T02570149  RH  051%=      5-min Rain = 0
KEN1 220159Z 32020G26KT 26/15 A3009 RMK A01 T02570148  RH  051%=      5-min Rain = 0
KEN1 220200Z 32023KT 26/15 A3009 RMK A01 T02570146  RH  050%=      5-min Rain = 0
KEN1 220201Z 32024G30KT 26/14 A3009 RMK A01 T02600143  RH  049%=      5-min Rain = 0
KEN1 220202Z 32024KT 26/14 A3009 RMK A01 T02620140  RH  047%=      5-min Rain = 0
KEN1 220203Z 32024KT 27/14 A3009 RMK A01 T02650138  RH  046%=      5-min Rain = 0
KEN1 220204Z 32026G33KT 27/14 A3009 RMK A01 T02660135  RH  044%=      5-min Rain = 0
KEN1 220205Z 32022G28KT 27/13 A3009 RMK A01 T02680133  RH  043%=      5-min Rain = 0
KEN1 220206Z 32025G30KT 27/13 A3009 RMK A01 T02690132  RH  043%=      5-min Rain = 0
KEN1 220207Z 32021G26KT 27/13 A3009 RMK A01 T02700131  RH  042%=      5-min Rain = 0
KEN1 220208Z 32025G30KT 27/13 A301 RMK A01 T02700131  RH  042%=      5-min Rain = 0
KEN1 220209Z 32024G31KT 27/13 A301 RMK A01 T02710130  RH  042%=      5-min Rain = 0
KEN1 220210Z 32022G29KT 27/13 A301 RMK A01 T02700130  RH  042%=      5-min Rain = 0
KEN1 220211Z 32023G31KT 27/13 A301 RMK A01 T02700131  RH  042%=      5-min Rain = 0
KEN1 220212Z 32024G30KT 27/13 A301 RMK A01 T02680132  RH  043%=      5-min Rain = 0
KEN1 220213Z 32021G26KT 27/13 A301 RMK A01 T02670133  RH  043%=      5-min Rain = 0
KEN1 220214Z 32021G26KT 27/13 A301 RMK A01 T02670133  RH  044%=      5-min Rain = 0
KEN1 220215Z 32019G25KT 27/13 A301 RMK A01 T02660133  RH  044%=      5-min Rain = 0
KEN1 220216Z 33022KT 27/13 A301 RMK A01 T02660133  RH  044%=      5-min Rain = 0
KEN1 220217Z 32022G28KT 27/13 A301 RMK A01 T02660133  RH  044%=      5-min Rain = 0
KEN1 220218Z 32025KT 27/13 A301 RMK A01 T02660133  RH  044%=      5-min Rain = 0
KEN1 220219Z 32020G25KT 27/13 A301 RMK A01 T02660134  RH  044%=      5-min Rain = 0
KEN1 220220Z 32026G31KT 27/13 A301 RMK A01 T02660133  RH  044%=      5-min Rain = 0
KEN1 220221Z 32023G28KT 27/13 A301 RMK A01 T02660133  RH  044%=      5-min Rain = 0
KEN1 220222Z 33021G26KT 27/13 A301 RMK A01 T02670133  RH  044%=      5-min Rain = 0
KEN1 220223Z 32018G23KT 27/13 A3011 RMK A01 T02660133  RH  044%=      5-min Rain = 0
KEN1 220224Z 32021KT 27/13 A3011 RMK A01 T02670133  RH  044%=      5-min Rain = 0
KEN1 220225Z 32017KT 27/13 A3011 RMK A01 T02670133  RH  043%=      5-min Rain = 0
KEN1 220226Z 32016KT 27/13 A3011 RMK A01 T02670133  RH  043%=      5-min Rain = 0
KEN1 220227Z 32017KT 27/13 A3011 RMK A01 T02680133  RH  044%=      5-min Rain = 0
KEN1 220228Z 31018G23KT 27/13 A3011 RMK A01 T02680133  RH  043%=      5-min Rain = 0
KEN1 220229Z 31016KT 27/13 A3011 RMK A01 T02680134  RH  044%=      5-min Rain = 0
KEN1 220230Z 31020G25KT 27/14 A3012 RMK A01 T02680137  RH  044%=      5-min Rain = 0
KEN1 220231Z 31022KT 27/14 A3012 RMK A01 T02670139  RH  045%=      5-min Rain = 0
KEN1 220232Z 30017KT 27/14 A3013 RMK A01 T02660140  RH  046%=      5-min Rain = 0
KEN1 220233Z 29020KT 26/14 A3013 RMK A01 T02640141  RH  047%=      5-min Rain = 0
KEN1 220234Z 29022G27KT 26/14 A3014 RMK A01 T02630141  RH  047%=      5-min Rain = 0
KEN1 220235Z 28019G29KT 26/14 A3014 RMK A01 T02610141  RH  047%=      5-min Rain = 0
KEN1 220236Z 28024KT 26/14 A3015 RMK A01 T02600141  RH  048%=      5-min Rain = 0
KEN1 220237Z 27017KT 26/14 A3015 RMK A01 T02590142  RH  048%=      5-min Rain = 0
KEN1 220238Z 27023G28KT 26/14 A3015 RMK A01 T02580144  RH  049%=      5-min Rain = 0
KEN1 220239Z 28022KT 26/14 A3015 RMK A01 T02560144  RH  050%=      5-min Rain = 0
KEN1 220240Z 27019KT 25/15 A3015 RMK A01 T02540145  RH  051%=      5-min Rain = 0
KEN1 220241Z 27018KT 25/15 A3015 RMK A01 T02530147  RH  052%=      5-min Rain = 0
KEN1 220242Z 27018G23KT 25/15 A3015 RMK A01 T02530150  RH  053%=      5-min Rain = 0
KEN1 220243Z 27019KT 25/15 A3014 RMK A01 T02530152  RH  054%=      5-min Rain = 0
KEN1 220244Z 28019KT 25/15 A3014 RMK A01 T02520154  RH  054%=      5-min Rain = 0
KEN1 220245Z 28018KT 25/16 A3014 RMK A01 T02520155  RH  055%=      5-min Rain = 0
KEN1 220246Z 29016KT 25/15 A3014 RMK A01 T02520154  RH  055%=      5-min Rain = 0
KEN1 220247Z 29016KT 25/16 A3013 RMK A01 T02520155  RH  055%=      5-min Rain = 0
KEN1 220248Z 29014KT 25/16 A3014 RMK A01 T02510155  RH  055%=      5-min Rain = 0
KEN1 220249Z 28017KT 25/15 A3014 RMK A01 T02520154  RH  055%=      5-min Rain = 0
KEN1 220250Z 28018KT 25/15 A3014 RMK A01 T02530151  RH  053%=      5-min Rain = 0
KEN1 220251Z 28016G21KT 25/15 A3014 RMK A01 T02540149  RH  052%=      5-min Rain = 0
KEN1 220252Z 29016KT 26/15 A3014 RMK A01 T02550149  RH  052%=      5-min Rain = 0
KEN1 220253Z 29014KT 26/15 A3014 RMK A01 T02550151  RH  053%=      5-min Rain = 0
KEN1 220254Z 29019G26KT 25/15 A3014 RMK A01 T02540151  RH  053%=      5-min Rain = 0
KEN1 220255Z 28023G28KT 25/15 A3014 RMK A01 T02540148  RH  052%=      5-min Rain = 0
KEN1 220256Z 28024KT 25/15 A3014 RMK A01 T02520146  RH  052%=      5-min Rain = 0
KEN1 220257Z 28022KT 25/15 A3014 RMK A01 T02510146  RH  052%=      5-min Rain = 0
KEN1 220258Z 29018KT 25/15 A3014 RMK A01 T02500146  RH  052%=      5-min Rain = 0
KEN1 220259Z 29019G25KT 25/15 A3014 RMK A01 T02500147  RH  053%=      5-min Rain = 0
KEN1 220300Z 29018KT 25/15 A3014 RMK A01 T02500147  RH  053%=      5-min Rain = 0
KEN1 220301Z 29017G22KT 25/15 A3013 RMK A01 T02490146  RH  053%=      5-min Rain = 0
KEN1 220302Z 29019KT 25/15 A3013 RMK A01 T02480147  RH  053%=      5-min Rain = 0
KEN1 220303Z 29022KT 25/15 A3013 RMK A01 T02480146  RH  053%=      5-min Rain = 0
KEN1 220304Z 29023G28KT 25/15 A3013 RMK A01 T02470145  RH  053%=      5-min Rain = 0
KEN1 220305Z 28023KT 25/15 A3013 RMK A01 T02470145  RH  053%=      5-min Rain = 0
KEN1 220306Z 29022KT 25/15 A3013 RMK A01 T02460145  RH  053%=      5-min Rain = 0
KEN1 220307Z 29019G24KT 25/15 A3014 RMK A01 T02450145  RH  054%=      5-min Rain = 0
KEN1 220308Z 29020KT 25/15 A3014 RMK A01 T02450145  RH  054%=      5-min Rain = 0
KEN1 220309Z 29020KT 24/15 A3014 RMK A01 T02440145  RH  054%=      5-min Rain = 0
KEN1 220310Z 30016KT 24/15 A3014 RMK A01 T02440145  RH  054%=      5-min Rain = 0
KEN1 220311Z 31015G22KT 24/14 A3015 RMK A01 T02430144  RH  054%=      5-min Rain = 0
KEN1 220312Z 32011KT 24/14 A3015 RMK A01 T02430144  RH  054%=      5-min Rain = 0
KEN1 220313Z 32012KT 24/14 A3016 RMK A01 T02430144  RH  054%=      5-min Rain = 0
KEN1 220314Z 33014KT 24/14 A3016 RMK A01 T02440144  RH  054%=      5-min Rain = 0
KEN1 220315Z 35014KT 24/14 A3016 RMK A01 T02440143  RH  053%=      5-min Rain = 0
KEN1 220316Z 36016KT 25/14 A3017 RMK A01 T02450144  RH  053%=      5-min Rain = 0
KEN1 220317Z 01017KT 25/14 A3017 RMK A01 T02460144  RH  053%=      5-min Rain = 0
KEN1 220318Z 01024G34KT 25/14 A3017 RMK A01 T02460144  RH  053%=      5-min Rain = 0
KEN1 220319Z 01027G32KT 25/14 A3017 RMK A01 T02480137  RH  050%=      5-min Rain = 0
KEN1 220320Z 36019KT 25/13 A3018 RMK A01 T02530131  RH  046%=      5-min Rain = 0
KEN1 220321Z 34017KT 26/13 A3018 RMK A01 T02600130  RH  045%=      5-min Rain = 0
KEN1 220322Z 33016KT 26/14 A3018 RMK A01 T02610139  RH  047%=      5-min Rain = 0
KEN1 220323Z 34015G20KT 26/15 A3018 RMK A01 T02550145  RH  050%=      5-min Rain = 0
KEN1 220324Z 33018KT 25/16 A3018 RMK A01 T02470155  RH  057%=      5-min Rain = 0
KEN1 220325Z 32021KT 24/16 A3017 RMK A01 T02380156  RH  060%=      5-min Rain = 0
KEN1 220326Z 32021KT 23/16 A3017 RMK A01 T02340159  RH  063%=      5-min Rain = 0
KEN1 220327Z 33021KT 23/16 A3017 RMK A01 T02280162  RH  066%=      5-min Rain = 0
KEN1 220328Z 32017KT 22/16 A3017 RMK A01 T02220162  RH  069%=      5-min Rain = 0
KEN1 220329Z 32016G22KT 22/16 A3017 RMK A01 T02200163  RH  070%=      5-min Rain = 0
KEN1 220330Z 34015KT 22/17 A3017 RMK A01 T02190165  RH  072%=      5-min Rain = 0
KEN1 220331Z 32016KT 21/17 A3017 RMK A01 T02130166  RH  074%=      5-min Rain = 0
KEN1 220332Z 33015KT 21/17 A3017 RMK A01 T02110165  RH  075%=      5-min Rain = 0
KEN1 220333Z 32020KT 21/16 A3017 RMK A01 T02140159  RH  071%=      5-min Rain = 0
KEN1 220334Z 31022KT 22/17 A3017 RMK A01 T02160165  RH  073%=      5-min Rain = 0
KEN1 220335Z 30020KT 21/16 A3017 RMK A01 T02100164  RH  075%=      5-min Rain = 0
KEN1 220336Z 29019KT 21/16 A3016 RMK A01 T02070164  RH  076%=      5-min Rain = 0
KEN1 220337Z 29017KT 21/17 A3016 RMK A01 T02070166  RH  077%=      5-min Rain = 0
KEN1 220338Z 28018KT 21/17 A3015 RMK A01 T02080165  RH  077%=      5-min Rain = 0
KEN1 220339Z 28016KT 21/16 A3015 RMK A01 T02110161  RH  073%=      5-min Rain = 0
KEN1 220340Z 29013KT 22/16 A3015 RMK A01 T02150163  RH  072%=      5-min Rain = 0
KEN1 220341Z 29012KT 22/17 A3015 RMK A01 T02170165  RH  072%=      5-min Rain = 0
KEN1 220342Z 29014KT 22/17 A3015 RMK A01 T02170166  RH  073%=      5-min Rain = 0
KEN1 220343Z 30011KT 22/17 A3015 RMK A01 T02150168  RH  075%=      5-min Rain = 0
KEN1 220344Z 31012KT 21/17 A3015 RMK A01 T02130168  RH  075%=      5-min Rain = 0
KEN1 220345Z 30010KT 21/17 A3015 RMK A01 T02130165  RH  074%=      5-min Rain = 0
KEN1 220346Z 30011KT 21/17 A3015 RMK A01 T02130166  RH  074%=      5-min Rain = 0
KEN1 220347Z 30010KT 21/17 A3015 RMK A01 T02140168  RH  075%=      5-min Rain = 0.01
KEN1 220348Z 30008KT 21/17 A3015 RMK A01 T02140168  RH  075%=      5-min Rain = 0
KEN1 220349Z 30008KT 21/17 A3015 RMK A01 T02140167  RH  075%=      5-min Rain = 0
KEN1 220350Z 30008KT 22/17 A3015 RMK A01 T02150167  RH  074%=      5-min Rain = 0
KEN1 220351Z 30009KT 21/17 A3015 RMK A01 T02140169  RH  075%=      5-min Rain = 0
KEN1 220352Z 31007KT 21/17 A3015 RMK A01 T02140168  RH  075%=      5-min Rain = 0
KEN1 220353Z 31008KT 21/17 A3015 RMK A01 T02140168  RH  075%=      5-min Rain = 0
KEN1 220354Z 30008KT 21/17 A3015 RMK A01 T02140167  RH  075%=      5-min Rain = 0
KEN1 220355Z 29007KT 21/17 A3015 RMK A01 T02140168  RH  075%=      5-min Rain = 0
KEN1 220356Z 28007KT 21/17 A3015 RMK A01 T02140168  RH  075%=      5-min Rain = 0
KEN1 220357Z 28005KT 21/17 A3015 RMK A01 T02140169  RH  075%=      5-min Rain = 0
KEN1 220358Z 26003KT 22/17 A3016 RMK A01 T02150168  RH  075%=      5-min Rain = 0
KEN1 220359Z 20003KT 22/17 A3016 RMK A01 T02150171  RH  076%=      5-min Rain = 0
KEN1 220400Z 20004KT 22/17 A3016 RMK A01 T02150174  RH  077%=      5-min Rain = 0
KEN1 220401Z 22005KT 22/17 A3016 RMK A01 T02150165  RH  073%=      5-min Rain = 0
KEN1 220402Z 22005KT 22/17 A3016 RMK A01 T02170165  RH  072%=      5-min Rain = 0
KEN1 220403Z 23006KT 22/17 A3016 RMK A01 T02180169  RH  073%=      5-min Rain = 0
KEN1 220404Z 22006KT 22/17 A3016 RMK A01 T02190169  RH  073%=      5-min Rain = 0
KEN1 220405Z 21007KT 22/17 A3017 RMK A01 T02180166  RH  072%=      5-min Rain = 0
KEN1 220406Z 20008KT 22/17 A3017 RMK A01 T02190168  RH  073%=      5-min Rain = 0
KEN1 220407Z 19008KT 22/17 A3017 RMK A01 T02200168  RH  072%=      5-min Rain = 0
KEN1 220408Z 18008KT 22/17 A3017 RMK A01 T02200168  RH  073%=      5-min Rain = 0
KEN1 220409Z 18009KT 22/17 A3017 RMK A01 T02200169  RH  073%=      5-min Rain = 0
KEN1 220410Z 19011KT 22/17 A3017 RMK A01 T02200171  RH  073%=      5-min Rain = 0
KEN1 220411Z 18011KT 22/17 A3018 RMK A01 T02210168  RH  072%=      5-min Rain = 0
KEN1 220412Z 19012KT 22/17 A3018 RMK A01 T02210165  RH  071%=      5-min Rain = 0
KEN1 220413Z 18010KT 22/16 A3018 RMK A01 T02240162  RH  068%=      5-min Rain = 0
KEN1 220414Z 17011KT 22/17 A3018 RMK A01 T02240168  RH  070%=      5-min Rain = 0
KEN1 220415Z 18010KT 23/16 A3018 RMK A01 T02250163  RH  068%=      5-min Rain = 0
KEN1 220416Z 20008KT 23/17 A3018 RMK A01 T02260168  RH  070%=      5-min Rain = 0
KEN1 220417Z 21009KT 23/17 A3018 RMK A01 T02250168  RH  070%=      5-min Rain = 0
KEN1 220418Z 22010KT 23/16 A3018 RMK A01 T02260162  RH  067%=      5-min Rain = 0
KEN1 220419Z 21009KT 23/16 A3018 RMK A01 T02280161  RH  066%=      5-min Rain = 0
KEN1 220420Z 21009KT 23/17 A3018 RMK A01 T02280166  RH  068%=      5-min Rain = 0
KEN1 220421Z 22007KT 23/16 A3018 RMK A01 T02280164  RH  067%=      5-min Rain = 0
KEN1 220422Z 20008KT 23/16 A3018 RMK A01 T02280157  RH  064%=      5-min Rain = 0
KEN1 220423Z 20008KT 23/16 A3018 RMK A01 T02310159  RH  064%=      5-min Rain = 0
KEN1 220424Z 19012KT 23/16 A3018 RMK A01 T02310157  RH  063%=      5-min Rain = 0
KEN1 220425Z 19012KT 23/16 A3018 RMK A01 T02310156  RH  063%=      5-min Rain = 0
KEN1 220426Z 19012KT 23/16 A3017 RMK A01 T02290156  RH  063%=      5-min Rain = 0
KEN1 220427Z 20012KT 23/16 A3017 RMK A01 T02280155  RH  063%=      5-min Rain = 0
KEN1 220428Z 19012KT 23/16 A3017 RMK A01 T02280156  RH  064%=      5-min Rain = 0
KEN1 220429Z 20013KT 23/16 A3017 RMK A01 T02260155  RH  064%=      5-min Rain = 0
KEN1 220430Z 21011KT 23/16 A3017 RMK A01 T02260157  RH  065%=      5-min Rain = 0
KEN1 220431Z 21013KT 23/16 A3017 RMK A01 T02260156  RH  065%=      5-min Rain = 0
KEN1 220432Z 21012KT 23/16 A3017 RMK A01 T02250157  RH  065%=      5-min Rain = 0
KEN1 220433Z 22013KT 23/16 A3017 RMK A01 T02250159  RH  066%=      5-min Rain = 0
KEN1 220434Z 23012KT 22/16 A3017 RMK A01 T02240160  RH  067%=      5-min Rain = 0
KEN1 220435Z 22013KT 22/16 A3017 RMK A01 T02230159  RH  067%=      5-min Rain = 0
KEN1 220436Z 22013KT 22/16 A3017 RMK A01 T02230157  RH  066%=      5-min Rain = 0
KEN1 220437Z 22013KT 22/16 A3017 RMK A01 T02240159  RH  067%=      5-min Rain = 0
KEN1 220438Z 21013KT 22/16 A3017 RMK A01 T02230159  RH  067%=      5-min Rain = 0
KEN1 220439Z 21014KT 22/16 A3017 RMK A01 T02220160  RH  068%=      5-min Rain = 0
KEN1 220440Z 21013KT 22/16 A3017 RMK A01 T02210161  RH  069%=      5-min Rain = 0
KEN1 220441Z 21013KT 22/16 A3017 RMK A01 T02200162  RH  070%=      5-min Rain = 0
KEN1 220442Z 22013KT 22/16 A3017 RMK A01 T02190161  RH  070%=      5-min Rain = 0
KEN1 220443Z 22013KT 22/16 A3017 RMK A01 T02190164  RH  071%=      5-min Rain = 0
KEN1 220444Z 22012KT 22/16 A3017 RMK A01 T02180164  RH  071%=      5-min Rain = 0
KEN1 220445Z 23011KT 22/16 A3017 RMK A01 T02180163  RH  071%=      5-min Rain = 0
KEN1 220446Z 23011KT 22/16 A3017 RMK A01 T02180164  RH  071%=      5-min Rain = 0
KEN1 220447Z 23011KT 22/16 A3017 RMK A01 T02180164  RH  072%=      5-min Rain = 0
KEN1 220448Z 23011KT 22/17 A3017 RMK A01 T02180166  RH  073%=      5-min Rain = 0
KEN1 220449Z 23010KT 22/17 A3017 RMK A01 T02170167  RH  073%=      5-min Rain = 0
KEN1 220450Z 22010KT 22/17 A3017 RMK A01 T02160167  RH  074%=      5-min Rain = 0
KEN1 220451Z 23009KT 22/17 A3018 RMK A01 T02160168  RH  074%=      5-min Rain = 0
KEN1 220452Z 23008KT 22/17 A3018 RMK A01 T02150169  RH  075%=      5-min Rain = 0
KEN1 220453Z 24007KT 21/17 A3018 RMK A01 T02140170  RH  076%=      5-min Rain = 0
KEN1 220454Z 25006KT 21/17 A3018 RMK A01 T02140171  RH  076%=      5-min Rain = 0
KEN1 220455Z 25006KT 21/17 A3018 RMK A01 T02130172  RH  077%=      5-min Rain = 0
KEN1 220456Z 26006KT 21/17 A3018 RMK A01 T02130172  RH  077%=      5-min Rain = 0
KEN1 220457Z 26006KT 21/17 A3018 RMK A01 T02140172  RH  077%=      5-min Rain = 0
KEN1 220458Z 28005KT 21/17 A3018 RMK A01 T02140172  RH  077%=      5-min Rain = 0
KEN1 220459Z 30007KT 21/17 A3019 RMK A01 T02140172  RH  077%=      5-min Rain = 0

Page generated in 0.1218 seconds.